﻿<?xml version="1.0" encoding="UTF-8" standalone="no" ?>
<gpx xmlns="http://www.topografix.com/GPX/1/1" creator="CompeGPS" version="1.1" xmlns:xsi="http://www.w3.org/2001/XMLSchema-instance" xsi:schemaLocation="http://www.topografix.com/GPX/1/1 http://www.topografix.com/GPX/1/1/gpx.xsd http://www.garmin.com/xmlschemas/GpxExtensions/v3 http://www.garmin.com/xmlschemas/GpxExtensionsv3.xsd http://www.garmin.com/xmlschemas/TrackPointExtension/v1 http://www.garmin.com/xmlschemas/TrackPointExtensionv1.xsd" xmlns:gpxtpx="http://www.garmin.com/xmlschemas/TrackPointExtension/v1">
  <metadata>
    <link href="http://www.compegps.com">
      <text>CompeGPS TEAM, SL</text>
    </link>
    <time>2013-03-05T11:56:35Z</time>
    <bounds maxlat="42.899090" maxlon="1.468846" minlat="42.879256" minlon="1.445874"/>
  </metadata>
<wpt lat="42.899045" lon="1.453494">
  <ele>1250</ele>
  <name>Col de Port</name>
</wpt>
<wpt lat="42.887678" lon="1.445895">
  <ele>1663</ele>
  <name>Pic d Estibat</name>
</wpt>
<wpt lat="42.879559" lon="1.454241">
  <ele>1621</ele>
  <name>Sommet des Griets</name>
</wpt>
<wpt lat="42.885526" lon="1.468708">
  <ele>1277</ele>
  <name>Anc. Mais. Forest.</name>
</wpt>
<wpt lat="42.888556" lon="1.459450">
  <ele>1330</ele>
  <name>Cabane d Estibat</name>
</wpt>
<wpt lat="42.896048" lon="1.463987">
  <ele>1120</ele>
  <name>Pont</name>
</wpt>
  <trk>
    <name>Pic d Estibat</name>
    <trkseg>
      <trkpt lat="42.899045" lon="1.453494">
        <ele>1250.3</ele>
        <time>2013-03-02T08:21:40Z</time>
        <name>Col de Port</name>
      </trkpt>
      <trkpt lat="42.899001" lon="1.453490">
        <ele>1250.8</ele>
        <time>2013-03-02T08:23:37Z</time>
      </trkpt>
      <trkpt lat="42.898992" lon="1.453335">
        <ele>1250.3</ele>
        <time>2013-03-02T08:24:21Z</time>
      </trkpt>
      <trkpt lat="42.898938" lon="1.453218">
        <ele>1251.3</ele>
        <time>2013-03-02T08:24:33Z</time>
      </trkpt>
      <trkpt lat="42.898867" lon="1.453162">
        <ele>1251.8</ele>
        <time>2013-03-02T08:24:46Z</time>
      </trkpt>
      <trkpt lat="42.898825" lon="1.453028">
        <ele>1252.7</ele>
        <time>2013-03-02T08:25:33Z</time>
      </trkpt>
      <trkpt lat="42.898743" lon="1.452998">
        <ele>1254.2</ele>
        <time>2013-03-02T08:25:51Z</time>
      </trkpt>
      <trkpt lat="42.898660" lon="1.452909">
        <ele>1255.6</ele>
        <time>2013-03-02T08:26:08Z</time>
      </trkpt>
      <trkpt lat="42.898570" lon="1.452854">
        <ele>1257.5</ele>
        <time>2013-03-02T08:26:25Z</time>
      </trkpt>
      <trkpt lat="42.898486" lon="1.452814">
        <ele>1259.9</ele>
        <time>2013-03-02T08:26:43Z</time>
      </trkpt>
      <trkpt lat="42.898399" lon="1.452753">
        <ele>1261.4</ele>
        <time>2013-03-02T08:27:00Z</time>
      </trkpt>
      <trkpt lat="42.898317" lon="1.452701">
        <ele>1263.3</ele>
        <time>2013-03-02T08:27:16Z</time>
      </trkpt>
      <trkpt lat="42.898234" lon="1.452678">
        <ele>1265.7</ele>
        <time>2013-03-02T08:27:55Z</time>
      </trkpt>
      <trkpt lat="42.898136" lon="1.452656">
        <ele>1269.6</ele>
        <time>2013-03-02T08:28:16Z</time>
      </trkpt>
      <trkpt lat="42.898050" lon="1.452607">
        <ele>1272.9</ele>
        <time>2013-03-02T08:28:34Z</time>
      </trkpt>
      <trkpt lat="42.897963" lon="1.452580">
        <ele>1278.2</ele>
        <time>2013-03-02T08:28:57Z</time>
      </trkpt>
      <trkpt lat="42.897883" lon="1.452522">
        <ele>1281.6</ele>
        <time>2013-03-02T08:29:18Z</time>
      </trkpt>
      <trkpt lat="42.897786" lon="1.452518">
        <ele>1284.9</ele>
        <time>2013-03-02T08:29:40Z</time>
      </trkpt>
      <trkpt lat="42.897699" lon="1.452471">
        <ele>1288.8</ele>
        <time>2013-03-02T08:29:59Z</time>
      </trkpt>
      <trkpt lat="42.897618" lon="1.452447">
        <ele>1292.6</ele>
        <time>2013-03-02T08:30:19Z</time>
      </trkpt>
      <trkpt lat="42.897534" lon="1.452412">
        <ele>1296.5</ele>
        <time>2013-03-02T08:30:38Z</time>
      </trkpt>
      <trkpt lat="42.897454" lon="1.452381">
        <ele>1298.4</ele>
        <time>2013-03-02T08:30:54Z</time>
      </trkpt>
      <trkpt lat="42.897372" lon="1.452325">
        <ele>1301.3</ele>
        <time>2013-03-02T08:31:13Z</time>
      </trkpt>
      <trkpt lat="42.897285" lon="1.452303">
        <ele>1304.7</ele>
        <time>2013-03-02T08:31:30Z</time>
      </trkpt>
      <trkpt lat="42.897200" lon="1.452286">
        <ele>1306.6</ele>
        <time>2013-03-02T08:31:47Z</time>
      </trkpt>
      <trkpt lat="42.897175" lon="1.452179">
        <ele>1309.0</ele>
        <time>2013-03-02T08:33:34Z</time>
      </trkpt>
      <trkpt lat="42.897086" lon="1.452193">
        <ele>1311.9</ele>
        <time>2013-03-02T08:33:55Z</time>
      </trkpt>
      <trkpt lat="42.897007" lon="1.452148">
        <ele>1314.7</ele>
        <time>2013-03-02T08:34:15Z</time>
      </trkpt>
      <trkpt lat="42.896920" lon="1.452095">
        <ele>1318.6</ele>
        <time>2013-03-02T08:34:35Z</time>
      </trkpt>
      <trkpt lat="42.896837" lon="1.452030">
        <ele>1321.0</ele>
        <time>2013-03-02T08:34:52Z</time>
      </trkpt>
      <trkpt lat="42.896752" lon="1.452019">
        <ele>1324.3</ele>
        <time>2013-03-02T08:35:08Z</time>
      </trkpt>
      <trkpt lat="42.896680" lon="1.451968">
        <ele>1328.2</ele>
        <time>2013-03-02T08:35:24Z</time>
      </trkpt>
      <trkpt lat="42.896592" lon="1.451934">
        <ele>1331.6</ele>
        <time>2013-03-02T08:35:42Z</time>
      </trkpt>
      <trkpt lat="42.896505" lon="1.451869">
        <ele>1335.9</ele>
        <time>2013-03-02T08:36:06Z</time>
      </trkpt>
      <trkpt lat="42.896428" lon="1.451817">
        <ele>1338.8</ele>
        <time>2013-03-02T08:38:59Z</time>
      </trkpt>
      <trkpt lat="42.896352" lon="1.451804">
        <ele>1341.7</ele>
        <time>2013-03-02T08:39:13Z</time>
      </trkpt>
      <trkpt lat="42.896265" lon="1.451754">
        <ele>1345.0</ele>
        <time>2013-03-02T08:39:28Z</time>
      </trkpt>
      <trkpt lat="42.896193" lon="1.451699">
        <ele>1349.3</ele>
        <time>2013-03-02T08:39:45Z</time>
      </trkpt>
      <trkpt lat="42.896107" lon="1.451665">
        <ele>1352.7</ele>
        <time>2013-03-02T08:40:03Z</time>
      </trkpt>
      <trkpt lat="42.896039" lon="1.451629">
        <ele>1356.1</ele>
        <time>2013-03-02T08:40:18Z</time>
      </trkpt>
      <trkpt lat="42.895954" lon="1.451592">
        <ele>1359.0</ele>
        <time>2013-03-02T08:40:32Z</time>
      </trkpt>
      <trkpt lat="42.895866" lon="1.451545">
        <ele>1362.8</ele>
        <time>2013-03-02T08:40:47Z</time>
      </trkpt>
      <trkpt lat="42.895772" lon="1.451527">
        <ele>1366.2</ele>
        <time>2013-03-02T08:41:02Z</time>
      </trkpt>
      <trkpt lat="42.895692" lon="1.451521">
        <ele>1369.5</ele>
        <time>2013-03-02T08:41:15Z</time>
      </trkpt>
      <trkpt lat="42.895601" lon="1.451485">
        <ele>1371.9</ele>
        <time>2013-03-02T08:41:28Z</time>
      </trkpt>
      <trkpt lat="42.895508" lon="1.451473">
        <ele>1374.8</ele>
        <time>2013-03-02T08:41:45Z</time>
      </trkpt>
      <trkpt lat="42.895437" lon="1.451433">
        <ele>1378.2</ele>
        <time>2013-03-02T08:42:01Z</time>
      </trkpt>
      <trkpt lat="42.895395" lon="1.451316">
        <ele>1382.0</ele>
        <time>2013-03-02T08:42:16Z</time>
      </trkpt>
      <trkpt lat="42.895336" lon="1.451266">
        <ele>1385.4</ele>
        <time>2013-03-02T08:42:38Z</time>
      </trkpt>
      <trkpt lat="42.895262" lon="1.451193">
        <ele>1388.8</ele>
        <time>2013-03-02T08:42:59Z</time>
      </trkpt>
      <trkpt lat="42.895201" lon="1.451087">
        <ele>1393.1</ele>
        <time>2013-03-02T08:43:22Z</time>
      </trkpt>
      <trkpt lat="42.895149" lon="1.450978">
        <ele>1396.0</ele>
        <time>2013-03-02T08:43:38Z</time>
      </trkpt>
      <trkpt lat="42.895086" lon="1.451000">
        <ele>1398.4</ele>
        <time>2013-03-02T08:43:53Z</time>
      </trkpt>
      <trkpt lat="42.895007" lon="1.450973">
        <ele>1399.8</ele>
        <time>2013-03-02T08:44:07Z</time>
      </trkpt>
      <trkpt lat="42.894922" lon="1.450973">
        <ele>1403.2</ele>
        <time>2013-03-02T08:44:20Z</time>
      </trkpt>
      <trkpt lat="42.894841" lon="1.450967">
        <ele>1405.6</ele>
        <time>2013-03-02T08:44:34Z</time>
      </trkpt>
      <trkpt lat="42.894750" lon="1.450970">
        <ele>1407.5</ele>
        <time>2013-03-02T08:44:47Z</time>
      </trkpt>
      <trkpt lat="42.894671" lon="1.450990">
        <ele>1409.4</ele>
        <time>2013-03-02T08:45:01Z</time>
      </trkpt>
      <trkpt lat="42.894581" lon="1.450982">
        <ele>1411.8</ele>
        <time>2013-03-02T08:45:14Z</time>
      </trkpt>
      <trkpt lat="42.894495" lon="1.450989">
        <ele>1413.8</ele>
        <time>2013-03-02T08:45:25Z</time>
      </trkpt>
      <trkpt lat="42.894476" lon="1.450962">
        <ele>1414.7</ele>
        <time>2013-03-02T08:51:41Z</time>
      </trkpt>
      <trkpt lat="42.894469" lon="1.450953">
        <ele>1414.7</ele>
        <time>2013-03-02T08:53:49Z</time>
      </trkpt>
      <trkpt lat="42.894423" lon="1.450978">
        <ele>1415.2</ele>
        <time>2013-03-02T08:54:11Z</time>
      </trkpt>
      <trkpt lat="42.894403" lon="1.450969">
        <ele>1415.7</ele>
        <time>2013-03-02T08:54:23Z</time>
      </trkpt>
      <trkpt lat="42.894507" lon="1.450953">
        <ele>1415.2</ele>
        <time>2013-03-02T08:54:32Z</time>
      </trkpt>
      <trkpt lat="42.894454" lon="1.450993">
        <ele>1415.2</ele>
        <time>2013-03-02T08:54:55Z</time>
      </trkpt>
      <trkpt lat="42.894358" lon="1.451015">
        <ele>1416.2</ele>
        <time>2013-03-02T08:55:06Z</time>
      </trkpt>
      <trkpt lat="42.894272" lon="1.451008">
        <ele>1416.6</ele>
        <time>2013-03-02T08:55:16Z</time>
      </trkpt>
      <trkpt lat="42.894165" lon="1.451003">
        <ele>1417.6</ele>
        <time>2013-03-02T08:55:28Z</time>
      </trkpt>
      <trkpt lat="42.894071" lon="1.451008">
        <ele>1418.1</ele>
        <time>2013-03-02T08:55:40Z</time>
      </trkpt>
      <trkpt lat="42.893982" lon="1.450986">
        <ele>1418.1</ele>
        <time>2013-03-02T08:55:50Z</time>
      </trkpt>
      <trkpt lat="42.893897" lon="1.450975">
        <ele>1417.1</ele>
        <time>2013-03-02T08:56:00Z</time>
      </trkpt>
      <trkpt lat="42.893799" lon="1.450968">
        <ele>1416.6</ele>
        <time>2013-03-02T08:56:11Z</time>
      </trkpt>
      <trkpt lat="42.893690" lon="1.450984">
        <ele>1417.1</ele>
        <time>2013-03-02T08:56:23Z</time>
      </trkpt>
      <trkpt lat="42.893595" lon="1.451000">
        <ele>1418.1</ele>
        <time>2013-03-02T08:56:35Z</time>
      </trkpt>
      <trkpt lat="42.893498" lon="1.450989">
        <ele>1419.5</ele>
        <time>2013-03-02T08:56:47Z</time>
      </trkpt>
      <trkpt lat="42.893412" lon="1.450987">
        <ele>1420.5</ele>
        <time>2013-03-02T08:57:00Z</time>
      </trkpt>
      <trkpt lat="42.893338" lon="1.450899">
        <ele>1421.9</ele>
        <time>2013-03-02T08:57:15Z</time>
      </trkpt>
      <trkpt lat="42.893257" lon="1.450853">
        <ele>1423.4</ele>
        <time>2013-03-02T08:57:29Z</time>
      </trkpt>
      <trkpt lat="42.893173" lon="1.450822">
        <ele>1425.3</ele>
        <time>2013-03-02T08:57:46Z</time>
      </trkpt>
      <trkpt lat="42.893087" lon="1.450785">
        <ele>1427.7</ele>
        <time>2013-03-02T08:58:06Z</time>
      </trkpt>
      <trkpt lat="42.893044" lon="1.450887">
        <ele>1429.1</ele>
        <time>2013-03-02T08:58:22Z</time>
      </trkpt>
      <trkpt lat="42.892960" lon="1.450915">
        <ele>1430.6</ele>
        <time>2013-03-02T08:58:41Z</time>
      </trkpt>
      <trkpt lat="42.892877" lon="1.450957">
        <ele>1432.5</ele>
        <time>2013-03-02T08:58:59Z</time>
      </trkpt>
      <trkpt lat="42.892813" lon="1.451012">
        <ele>1434.9</ele>
        <time>2013-03-02T08:59:18Z</time>
      </trkpt>
      <trkpt lat="42.892748" lon="1.451012">
        <ele>1437.8</ele>
        <time>2013-03-02T08:59:49Z</time>
      </trkpt>
      <trkpt lat="42.892675" lon="1.450928">
        <ele>1440.7</ele>
        <time>2013-03-02T09:00:08Z</time>
      </trkpt>
      <trkpt lat="42.892618" lon="1.450850">
        <ele>1442.6</ele>
        <time>2013-03-02T09:00:26Z</time>
      </trkpt>
      <trkpt lat="42.892566" lon="1.450767">
        <ele>1446.0</ele>
        <time>2013-03-02T09:00:46Z</time>
      </trkpt>
      <trkpt lat="42.892504" lon="1.450642">
        <ele>1448.8</ele>
        <time>2013-03-02T09:01:14Z</time>
      </trkpt>
      <trkpt lat="42.892465" lon="1.450525">
        <ele>1451.2</ele>
        <time>2013-03-02T09:01:42Z</time>
      </trkpt>
      <trkpt lat="42.892417" lon="1.450427">
        <ele>1453.2</ele>
        <time>2013-03-02T09:02:08Z</time>
      </trkpt>
      <trkpt lat="42.892376" lon="1.450457">
        <ele>1455.6</ele>
        <time>2013-03-02T09:02:30Z</time>
      </trkpt>
      <trkpt lat="42.892359" lon="1.450599">
        <ele>1457.0</ele>
        <time>2013-03-02T09:02:45Z</time>
      </trkpt>
      <trkpt lat="42.892319" lon="1.450700">
        <ele>1458.9</ele>
        <time>2013-03-02T09:03:02Z</time>
      </trkpt>
      <trkpt lat="42.892281" lon="1.450762">
        <ele>1458.5</ele>
        <time>2013-03-02T09:09:31Z</time>
      </trkpt>
      <trkpt lat="42.892190" lon="1.450712">
        <ele>1463.3</ele>
        <time>2013-03-02T09:10:01Z</time>
      </trkpt>
      <trkpt lat="42.892127" lon="1.450669">
        <ele>1467.1</ele>
        <time>2013-03-02T09:10:19Z</time>
      </trkpt>
      <trkpt lat="42.892056" lon="1.450766">
        <ele>1469.5</ele>
        <time>2013-03-02T09:10:34Z</time>
      </trkpt>
      <trkpt lat="42.891961" lon="1.450749">
        <ele>1472.9</ele>
        <time>2013-03-02T09:11:02Z</time>
      </trkpt>
      <trkpt lat="42.891944" lon="1.450625">
        <ele>1474.8</ele>
        <time>2013-03-02T09:11:16Z</time>
      </trkpt>
      <trkpt lat="42.891896" lon="1.450519">
        <ele>1477.2</ele>
        <time>2013-03-02T09:11:33Z</time>
      </trkpt>
      <trkpt lat="42.891826" lon="1.450437">
        <ele>1480.6</ele>
        <time>2013-03-02T09:11:52Z</time>
      </trkpt>
      <trkpt lat="42.891752" lon="1.450406">
        <ele>1483.4</ele>
        <time>2013-03-02T09:12:11Z</time>
      </trkpt>
      <trkpt lat="42.891703" lon="1.450509">
        <ele>1486.3</ele>
        <time>2013-03-02T09:12:29Z</time>
      </trkpt>
      <trkpt lat="42.891641" lon="1.450606">
        <ele>1488.7</ele>
        <time>2013-03-02T09:12:45Z</time>
      </trkpt>
      <trkpt lat="42.891576" lon="1.450676">
        <ele>1491.1</ele>
        <time>2013-03-02T09:13:01Z</time>
      </trkpt>
      <trkpt lat="42.891523" lon="1.450746">
        <ele>1493.1</ele>
        <time>2013-03-02T09:13:59Z</time>
      </trkpt>
      <trkpt lat="42.891462" lon="1.450826">
        <ele>1495.5</ele>
        <time>2013-03-02T09:14:12Z</time>
      </trkpt>
      <trkpt lat="42.891384" lon="1.450903">
        <ele>1497.9</ele>
        <time>2013-03-02T09:14:26Z</time>
      </trkpt>
      <trkpt lat="42.891306" lon="1.450971">
        <ele>1499.8</ele>
        <time>2013-03-02T09:14:40Z</time>
      </trkpt>
      <trkpt lat="42.891233" lon="1.451022">
        <ele>1502.2</ele>
        <time>2013-03-02T09:14:55Z</time>
      </trkpt>
      <trkpt lat="42.891181" lon="1.450891">
        <ele>1505.1</ele>
        <time>2013-03-02T09:15:25Z</time>
      </trkpt>
      <trkpt lat="42.891125" lon="1.450881">
        <ele>1508.4</ele>
        <time>2013-03-02T09:15:40Z</time>
      </trkpt>
      <trkpt lat="42.891044" lon="1.450950">
        <ele>1511.3</ele>
        <time>2013-03-02T09:15:52Z</time>
      </trkpt>
      <trkpt lat="42.890964" lon="1.451000">
        <ele>1513.7</ele>
        <time>2013-03-02T09:16:05Z</time>
      </trkpt>
      <trkpt lat="42.890911" lon="1.450880">
        <ele>1516.1</ele>
        <time>2013-03-02T09:16:19Z</time>
      </trkpt>
      <trkpt lat="42.890871" lon="1.450769">
        <ele>1518.1</ele>
        <time>2013-03-02T09:16:35Z</time>
      </trkpt>
      <trkpt lat="42.890804" lon="1.450719">
        <ele>1521.9</ele>
        <time>2013-03-02T09:16:49Z</time>
      </trkpt>
      <trkpt lat="42.890734" lon="1.450794">
        <ele>1523.8</ele>
        <time>2013-03-02T09:17:00Z</time>
      </trkpt>
      <trkpt lat="42.890647" lon="1.450847">
        <ele>1526.2</ele>
        <time>2013-03-02T09:17:12Z</time>
      </trkpt>
      <trkpt lat="42.890573" lon="1.450924">
        <ele>1527.7</ele>
        <time>2013-03-02T09:17:23Z</time>
      </trkpt>
      <trkpt lat="42.890520" lon="1.450825">
        <ele>1529.6</ele>
        <time>2013-03-02T09:17:35Z</time>
      </trkpt>
      <trkpt lat="42.890460" lon="1.450800">
        <ele>1533.4</ele>
        <time>2013-03-02T09:17:49Z</time>
      </trkpt>
      <trkpt lat="42.890375" lon="1.450859">
        <ele>1536.3</ele>
        <time>2013-03-02T09:18:00Z</time>
      </trkpt>
      <trkpt lat="42.890280" lon="1.450867">
        <ele>1538.2</ele>
        <time>2013-03-02T09:18:12Z</time>
      </trkpt>
      <trkpt lat="42.890199" lon="1.450795">
        <ele>1540.7</ele>
        <time>2013-03-02T09:18:23Z</time>
      </trkpt>
      <trkpt lat="42.890166" lon="1.450666">
        <ele>1543.1</ele>
        <time>2013-03-02T09:18:35Z</time>
      </trkpt>
      <trkpt lat="42.890109" lon="1.450579">
        <ele>1546.9</ele>
        <time>2013-03-02T09:18:48Z</time>
      </trkpt>
      <trkpt lat="42.890044" lon="1.450488">
        <ele>1548.8</ele>
        <time>2013-03-02T09:19:01Z</time>
      </trkpt>
      <trkpt lat="42.889986" lon="1.450388">
        <ele>1552.2</ele>
        <time>2013-03-02T09:19:12Z</time>
      </trkpt>
      <trkpt lat="42.889944" lon="1.450309">
        <ele>1553.6</ele>
        <time>2013-03-02T09:19:29Z</time>
      </trkpt>
      <trkpt lat="42.889950" lon="1.450306">
        <ele>1554.1</ele>
        <time>2013-03-02T09:21:13Z</time>
      </trkpt>
      <trkpt lat="42.889966" lon="1.450369">
        <ele>1554.1</ele>
        <time>2013-03-02T09:22:13Z</time>
      </trkpt>
      <trkpt lat="42.889920" lon="1.450321">
        <ele>1553.6</ele>
        <time>2013-03-02T09:23:11Z</time>
      </trkpt>
      <trkpt lat="42.889868" lon="1.450206">
        <ele>1553.6</ele>
        <time>2013-03-02T09:23:23Z</time>
      </trkpt>
      <trkpt lat="42.889854" lon="1.450068">
        <ele>1554.6</ele>
        <time>2013-03-02T09:23:36Z</time>
      </trkpt>
      <trkpt lat="42.889816" lon="1.449950">
        <ele>1555.1</ele>
        <time>2013-03-02T09:23:49Z</time>
      </trkpt>
      <trkpt lat="42.889786" lon="1.449823">
        <ele>1556.5</ele>
        <time>2013-03-02T09:24:01Z</time>
      </trkpt>
      <trkpt lat="42.889761" lon="1.449721">
        <ele>1558.4</ele>
        <time>2013-03-02T09:24:16Z</time>
      </trkpt>
      <trkpt lat="42.889743" lon="1.449689">
        <ele>1558.9</ele>
        <time>2013-03-02T09:25:28Z</time>
      </trkpt>
      <trkpt lat="42.889704" lon="1.449554">
        <ele>1560.4</ele>
        <time>2013-03-02T09:25:46Z</time>
      </trkpt>
      <trkpt lat="42.889655" lon="1.449459">
        <ele>1562.3</ele>
        <time>2013-03-02T09:26:04Z</time>
      </trkpt>
      <trkpt lat="42.889615" lon="1.449348">
        <ele>1563.7</ele>
        <time>2013-03-02T09:26:21Z</time>
      </trkpt>
      <trkpt lat="42.889611" lon="1.449243">
        <ele>1565.2</ele>
        <time>2013-03-02T09:26:36Z</time>
      </trkpt>
      <trkpt lat="42.889562" lon="1.449128">
        <ele>1568.1</ele>
        <time>2013-03-02T09:26:51Z</time>
      </trkpt>
      <trkpt lat="42.889520" lon="1.449028">
        <ele>1570.9</ele>
        <time>2013-03-02T09:27:09Z</time>
      </trkpt>
      <trkpt lat="42.889509" lon="1.448916">
        <ele>1572.4</ele>
        <time>2013-03-02T09:27:27Z</time>
      </trkpt>
      <trkpt lat="42.889454" lon="1.448832">
        <ele>1575.7</ele>
        <time>2013-03-02T09:27:45Z</time>
      </trkpt>
      <trkpt lat="42.889403" lon="1.448747">
        <ele>1578.1</ele>
        <time>2013-03-02T09:28:05Z</time>
      </trkpt>
      <trkpt lat="42.889338" lon="1.448665">
        <ele>1580.5</ele>
        <time>2013-03-02T09:28:22Z</time>
      </trkpt>
      <trkpt lat="42.889300" lon="1.448580">
        <ele>1582.9</ele>
        <time>2013-03-02T09:28:39Z</time>
      </trkpt>
      <trkpt lat="42.889268" lon="1.448462">
        <ele>1585.3</ele>
        <time>2013-03-02T09:28:55Z</time>
      </trkpt>
      <trkpt lat="42.889222" lon="1.448365">
        <ele>1586.8</ele>
        <time>2013-03-02T09:29:08Z</time>
      </trkpt>
      <trkpt lat="42.889199" lon="1.448252">
        <ele>1589.2</ele>
        <time>2013-03-02T09:29:20Z</time>
      </trkpt>
      <trkpt lat="42.889159" lon="1.448146">
        <ele>1592.1</ele>
        <time>2013-03-02T09:29:35Z</time>
      </trkpt>
      <trkpt lat="42.889117" lon="1.448048">
        <ele>1594.5</ele>
        <time>2013-03-02T09:29:50Z</time>
      </trkpt>
      <trkpt lat="42.889085" lon="1.447937">
        <ele>1596.9</ele>
        <time>2013-03-02T09:30:04Z</time>
      </trkpt>
      <trkpt lat="42.889062" lon="1.447810">
        <ele>1599.8</ele>
        <time>2013-03-02T09:30:15Z</time>
      </trkpt>
      <trkpt lat="42.889044" lon="1.447693">
        <ele>1603.1</ele>
        <time>2013-03-02T09:30:25Z</time>
      </trkpt>
      <trkpt lat="42.889000" lon="1.447572">
        <ele>1605.5</ele>
        <time>2013-03-02T09:30:42Z</time>
      </trkpt>
      <trkpt lat="42.888957" lon="1.447468">
        <ele>1607.9</ele>
        <time>2013-03-02T09:31:15Z</time>
      </trkpt>
      <trkpt lat="42.888907" lon="1.447366">
        <ele>1611.3</ele>
        <time>2013-03-02T09:31:50Z</time>
      </trkpt>
      <trkpt lat="42.888882" lon="1.447266">
        <ele>1614.2</ele>
        <time>2013-03-02T09:32:08Z</time>
      </trkpt>
      <trkpt lat="42.888863" lon="1.447146">
        <ele>1616.1</ele>
        <time>2013-03-02T09:32:45Z</time>
      </trkpt>
      <trkpt lat="42.888838" lon="1.447040">
        <ele>1618.0</ele>
        <time>2013-03-02T09:33:00Z</time>
      </trkpt>
      <trkpt lat="42.888786" lon="1.446925">
        <ele>1621.9</ele>
        <time>2013-03-02T09:33:12Z</time>
      </trkpt>
      <trkpt lat="42.888727" lon="1.446812">
        <ele>1626.2</ele>
        <time>2013-03-02T09:33:25Z</time>
      </trkpt>
      <trkpt lat="42.888681" lon="1.446708">
        <ele>1630.1</ele>
        <time>2013-03-02T09:33:41Z</time>
      </trkpt>
      <trkpt lat="42.888631" lon="1.446597">
        <ele>1633.4</ele>
        <time>2013-03-02T09:33:56Z</time>
      </trkpt>
      <trkpt lat="42.888569" lon="1.446506">
        <ele>1636.8</ele>
        <time>2013-03-02T09:34:12Z</time>
      </trkpt>
      <trkpt lat="42.888504" lon="1.446428">
        <ele>1640.2</ele>
        <time>2013-03-02T09:34:27Z</time>
      </trkpt>
      <trkpt lat="42.888491" lon="1.446292">
        <ele>1640.6</ele>
        <time>2013-03-02T09:34:38Z</time>
      </trkpt>
      <trkpt lat="42.888450" lon="1.446184">
        <ele>1644.5</ele>
        <time>2013-03-02T09:34:50Z</time>
      </trkpt>
      <trkpt lat="42.888361" lon="1.446239">
        <ele>1648.8</ele>
        <time>2013-03-02T09:35:04Z</time>
      </trkpt>
      <trkpt lat="42.888318" lon="1.446130">
        <ele>1650.7</ele>
        <time>2013-03-02T09:35:16Z</time>
      </trkpt>
      <trkpt lat="42.888247" lon="1.446062">
        <ele>1653.6</ele>
        <time>2013-03-02T09:35:27Z</time>
      </trkpt>
      <trkpt lat="42.888183" lon="1.446048">
        <ele>1655.5</ele>
        <time>2013-03-02T09:35:38Z</time>
      </trkpt>
      <trkpt lat="42.888119" lon="1.445937">
        <ele>1657.9</ele>
        <time>2013-03-02T09:35:50Z</time>
      </trkpt>
      <trkpt lat="42.888031" lon="1.445938">
        <ele>1660.8</ele>
        <time>2013-03-02T09:36:21Z</time>
      </trkpt>
      <trkpt lat="42.887953" lon="1.445907">
        <ele>1663.7</ele>
        <time>2013-03-02T09:36:37Z</time>
      </trkpt>
      <trkpt lat="42.887871" lon="1.445889">
        <ele>1666.1</ele>
        <time>2013-03-02T09:36:54Z</time>
      </trkpt>
      <trkpt lat="42.887776" lon="1.445874">
        <ele>1669.0</ele>
        <time>2013-03-02T09:37:06Z</time>
      </trkpt>
      <trkpt lat="42.887678" lon="1.445895">
        <ele>1670.4</ele>
        <time>2013-03-02T09:43:09Z</time>
        <name>Pic d Estibat</name>
      </trkpt>
      <trkpt lat="42.887619" lon="1.445882">
        <ele>1668.5</ele>
        <time>2013-03-02T09:43:41Z</time>
      </trkpt>
      <trkpt lat="42.887569" lon="1.445972">
        <ele>1666.1</ele>
        <time>2013-03-02T09:44:21Z</time>
      </trkpt>
      <trkpt lat="42.887497" lon="1.446022">
        <ele>1662.7</ele>
        <time>2013-03-02T09:44:28Z</time>
      </trkpt>
      <trkpt lat="42.887436" lon="1.446111">
        <ele>1659.8</ele>
        <time>2013-03-02T09:44:39Z</time>
      </trkpt>
      <trkpt lat="42.887370" lon="1.446162">
        <ele>1657.9</ele>
        <time>2013-03-02T09:44:53Z</time>
      </trkpt>
      <trkpt lat="42.887287" lon="1.446239">
        <ele>1656.0</ele>
        <time>2013-03-02T09:45:07Z</time>
      </trkpt>
      <trkpt lat="42.887219" lon="1.446314">
        <ele>1654.1</ele>
        <time>2013-03-02T09:45:18Z</time>
      </trkpt>
      <trkpt lat="42.887144" lon="1.446405">
        <ele>1651.2</ele>
        <time>2013-03-02T09:45:29Z</time>
      </trkpt>
      <trkpt lat="42.887071" lon="1.446470">
        <ele>1648.8</ele>
        <time>2013-03-02T09:45:47Z</time>
      </trkpt>
      <trkpt lat="42.887014" lon="1.446577">
        <ele>1645.9</ele>
        <time>2013-03-02T09:45:56Z</time>
      </trkpt>
      <trkpt lat="42.886971" lon="1.446678">
        <ele>1643.5</ele>
        <time>2013-03-02T09:46:05Z</time>
      </trkpt>
      <trkpt lat="42.886920" lon="1.446792">
        <ele>1641.1</ele>
        <time>2013-03-02T09:46:14Z</time>
      </trkpt>
      <trkpt lat="42.886873" lon="1.446897">
        <ele>1639.2</ele>
        <time>2013-03-02T09:46:23Z</time>
      </trkpt>
      <trkpt lat="42.886810" lon="1.446996">
        <ele>1637.3</ele>
        <time>2013-03-02T09:46:32Z</time>
      </trkpt>
      <trkpt lat="42.886745" lon="1.447081">
        <ele>1635.3</ele>
        <time>2013-03-02T09:46:40Z</time>
      </trkpt>
      <trkpt lat="42.886667" lon="1.447157">
        <ele>1633.4</ele>
        <time>2013-03-02T09:46:49Z</time>
      </trkpt>
      <trkpt lat="42.886595" lon="1.447249">
        <ele>1632.5</ele>
        <time>2013-03-02T09:46:58Z</time>
      </trkpt>
      <trkpt lat="42.886527" lon="1.447343">
        <ele>1631.5</ele>
        <time>2013-03-02T09:47:10Z</time>
      </trkpt>
      <trkpt lat="42.886466" lon="1.447454">
        <ele>1630.1</ele>
        <time>2013-03-02T09:47:20Z</time>
      </trkpt>
      <trkpt lat="42.886409" lon="1.447556">
        <ele>1627.2</ele>
        <time>2013-03-02T09:47:29Z</time>
      </trkpt>
      <trkpt lat="42.886327" lon="1.447641">
        <ele>1625.2</ele>
        <time>2013-03-02T09:47:38Z</time>
      </trkpt>
      <trkpt lat="42.886251" lon="1.447731">
        <ele>1622.4</ele>
        <time>2013-03-02T09:47:47Z</time>
      </trkpt>
      <trkpt lat="42.886183" lon="1.447826">
        <ele>1620.0</ele>
        <time>2013-03-02T09:47:55Z</time>
      </trkpt>
      <trkpt lat="42.886113" lon="1.447901">
        <ele>1617.6</ele>
        <time>2013-03-02T09:48:03Z</time>
      </trkpt>
      <trkpt lat="42.886046" lon="1.447993">
        <ele>1616.6</ele>
        <time>2013-03-02T09:48:12Z</time>
      </trkpt>
      <trkpt lat="42.885975" lon="1.448087">
        <ele>1614.2</ele>
        <time>2013-03-02T09:48:21Z</time>
      </trkpt>
      <trkpt lat="42.885901" lon="1.448163">
        <ele>1611.8</ele>
        <time>2013-03-02T09:48:29Z</time>
      </trkpt>
      <trkpt lat="42.885838" lon="1.448267">
        <ele>1610.3</ele>
        <time>2013-03-02T09:48:38Z</time>
      </trkpt>
      <trkpt lat="42.885754" lon="1.448326">
        <ele>1608.9</ele>
        <time>2013-03-02T09:49:17Z</time>
      </trkpt>
      <trkpt lat="42.885658" lon="1.448384">
        <ele>1606.0</ele>
        <time>2013-03-02T09:49:27Z</time>
      </trkpt>
      <trkpt lat="42.885591" lon="1.448476">
        <ele>1603.6</ele>
        <time>2013-03-02T09:49:38Z</time>
      </trkpt>
      <trkpt lat="42.885521" lon="1.448570">
        <ele>1602.2</ele>
        <time>2013-03-02T09:49:48Z</time>
      </trkpt>
      <trkpt lat="42.885443" lon="1.448640">
        <ele>1600.7</ele>
        <time>2013-03-02T09:49:57Z</time>
      </trkpt>
      <trkpt lat="42.885359" lon="1.448710">
        <ele>1599.8</ele>
        <time>2013-03-02T09:50:06Z</time>
      </trkpt>
      <trkpt lat="42.885288" lon="1.448780">
        <ele>1598.8</ele>
        <time>2013-03-02T09:50:14Z</time>
      </trkpt>
      <trkpt lat="42.885208" lon="1.448857">
        <ele>1598.8</ele>
        <time>2013-03-02T09:50:23Z</time>
      </trkpt>
      <trkpt lat="42.885116" lon="1.448916">
        <ele>1598.3</ele>
        <time>2013-03-02T09:50:34Z</time>
      </trkpt>
      <trkpt lat="42.885075" lon="1.448882">
        <ele>1597.4</ele>
        <time>2013-03-02T09:51:08Z</time>
      </trkpt>
      <trkpt lat="42.884989" lon="1.448936">
        <ele>1596.9</ele>
        <time>2013-03-02T09:51:43Z</time>
      </trkpt>
      <trkpt lat="42.884896" lon="1.448971">
        <ele>1595.4</ele>
        <time>2013-03-02T09:51:52Z</time>
      </trkpt>
      <trkpt lat="42.884845" lon="1.448962">
        <ele>1593.5</ele>
        <time>2013-03-02T09:52:37Z</time>
      </trkpt>
      <trkpt lat="42.884769" lon="1.449015">
        <ele>1592.1</ele>
        <time>2013-03-02T09:52:56Z</time>
      </trkpt>
      <trkpt lat="42.884686" lon="1.449089">
        <ele>1589.7</ele>
        <time>2013-03-02T09:53:09Z</time>
      </trkpt>
      <trkpt lat="42.884592" lon="1.449152">
        <ele>1586.3</ele>
        <time>2013-03-02T09:53:19Z</time>
      </trkpt>
      <trkpt lat="42.884519" lon="1.449228">
        <ele>1584.4</ele>
        <time>2013-03-02T09:53:29Z</time>
      </trkpt>
      <trkpt lat="42.884449" lon="1.449317">
        <ele>1582.0</ele>
        <time>2013-03-02T09:53:38Z</time>
      </trkpt>
      <trkpt lat="42.884378" lon="1.449414">
        <ele>1580.5</ele>
        <time>2013-03-02T09:53:47Z</time>
      </trkpt>
      <trkpt lat="42.884313" lon="1.449495">
        <ele>1578.6</ele>
        <time>2013-03-02T09:53:56Z</time>
      </trkpt>
      <trkpt lat="42.884240" lon="1.449583">
        <ele>1577.2</ele>
        <time>2013-03-02T09:54:06Z</time>
      </trkpt>
      <trkpt lat="42.884170" lon="1.449671">
        <ele>1575.7</ele>
        <time>2013-03-02T09:54:16Z</time>
      </trkpt>
      <trkpt lat="42.884104" lon="1.449787">
        <ele>1575.3</ele>
        <time>2013-03-02T09:54:27Z</time>
      </trkpt>
      <trkpt lat="42.884035" lon="1.449879">
        <ele>1575.7</ele>
        <time>2013-03-02T09:54:38Z</time>
      </trkpt>
      <trkpt lat="42.883973" lon="1.449984">
        <ele>1575.3</ele>
        <time>2013-03-02T09:54:49Z</time>
      </trkpt>
      <trkpt lat="42.883914" lon="1.450076">
        <ele>1574.3</ele>
        <time>2013-03-02T09:54:59Z</time>
      </trkpt>
      <trkpt lat="42.883859" lon="1.450193">
        <ele>1574.3</ele>
        <time>2013-03-02T09:55:10Z</time>
      </trkpt>
      <trkpt lat="42.883807" lon="1.450311">
        <ele>1575.7</ele>
        <time>2013-03-02T09:55:21Z</time>
      </trkpt>
      <trkpt lat="42.883765" lon="1.450422">
        <ele>1575.7</ele>
        <time>2013-03-02T09:55:35Z</time>
      </trkpt>
      <trkpt lat="42.883708" lon="1.450521">
        <ele>1576.2</ele>
        <time>2013-03-02T09:55:45Z</time>
      </trkpt>
      <trkpt lat="42.883653" lon="1.450623">
        <ele>1576.7</ele>
        <time>2013-03-02T09:55:55Z</time>
      </trkpt>
      <trkpt lat="42.883593" lon="1.450720">
        <ele>1575.7</ele>
        <time>2013-03-02T09:56:06Z</time>
      </trkpt>
      <trkpt lat="42.883523" lon="1.450815">
        <ele>1575.3</ele>
        <time>2013-03-02T09:56:18Z</time>
      </trkpt>
      <trkpt lat="42.883451" lon="1.450904">
        <ele>1574.8</ele>
        <time>2013-03-02T09:56:30Z</time>
      </trkpt>
      <trkpt lat="42.883394" lon="1.451008">
        <ele>1573.8</ele>
        <time>2013-03-02T09:56:42Z</time>
      </trkpt>
      <trkpt lat="42.883344" lon="1.451129">
        <ele>1574.3</ele>
        <time>2013-03-02T09:56:54Z</time>
      </trkpt>
      <trkpt lat="42.883305" lon="1.451249">
        <ele>1573.8</ele>
        <time>2013-03-02T09:57:06Z</time>
      </trkpt>
      <trkpt lat="42.883264" lon="1.451377">
        <ele>1573.8</ele>
        <time>2013-03-02T09:57:18Z</time>
      </trkpt>
      <trkpt lat="42.883218" lon="1.451494">
        <ele>1574.3</ele>
        <time>2013-03-02T09:57:29Z</time>
      </trkpt>
      <trkpt lat="42.883174" lon="1.451619">
        <ele>1574.3</ele>
        <time>2013-03-02T09:57:41Z</time>
      </trkpt>
      <trkpt lat="42.883150" lon="1.451752">
        <ele>1575.3</ele>
        <time>2013-03-02T09:57:52Z</time>
      </trkpt>
      <trkpt lat="42.883119" lon="1.451872">
        <ele>1576.2</ele>
        <time>2013-03-02T09:58:04Z</time>
      </trkpt>
      <trkpt lat="42.883092" lon="1.451998">
        <ele>1576.7</ele>
        <time>2013-03-02T09:58:16Z</time>
      </trkpt>
      <trkpt lat="42.883060" lon="1.452105">
        <ele>1578.1</ele>
        <time>2013-03-02T09:58:29Z</time>
      </trkpt>
      <trkpt lat="42.883019" lon="1.452215">
        <ele>1579.6</ele>
        <time>2013-03-02T09:58:43Z</time>
      </trkpt>
      <trkpt lat="42.882973" lon="1.452317">
        <ele>1579.6</ele>
        <time>2013-03-02T09:58:59Z</time>
      </trkpt>
      <trkpt lat="42.882953" lon="1.452438">
        <ele>1582.5</ele>
        <time>2013-03-02T09:59:17Z</time>
      </trkpt>
      <trkpt lat="42.882906" lon="1.452548">
        <ele>1584.4</ele>
        <time>2013-03-02T09:59:33Z</time>
      </trkpt>
      <trkpt lat="42.882899" lon="1.452682">
        <ele>1586.3</ele>
        <time>2013-03-02T09:59:50Z</time>
      </trkpt>
      <trkpt lat="42.882887" lon="1.452805">
        <ele>1589.2</ele>
        <time>2013-03-02T10:00:01Z</time>
      </trkpt>
      <trkpt lat="42.882891" lon="1.452934">
        <ele>1591.1</ele>
        <time>2013-03-02T10:00:12Z</time>
      </trkpt>
      <trkpt lat="42.882917" lon="1.453045">
        <ele>1593.0</ele>
        <time>2013-03-02T10:00:23Z</time>
      </trkpt>
      <trkpt lat="42.882934" lon="1.453169">
        <ele>1595.0</ele>
        <time>2013-03-02T10:00:34Z</time>
      </trkpt>
      <trkpt lat="42.882899" lon="1.453223">
        <ele>1594.0</ele>
        <time>2013-03-02T10:02:28Z</time>
      </trkpt>
      <trkpt lat="42.882819" lon="1.453184">
        <ele>1594.0</ele>
        <time>2013-03-02T10:02:41Z</time>
      </trkpt>
      <trkpt lat="42.882725" lon="1.453195">
        <ele>1595.0</ele>
        <time>2013-03-02T10:02:54Z</time>
      </trkpt>
      <trkpt lat="42.882631" lon="1.453222">
        <ele>1592.6</ele>
        <time>2013-03-02T10:03:07Z</time>
      </trkpt>
      <trkpt lat="42.882560" lon="1.453214">
        <ele>1590.6</ele>
        <time>2013-03-02T10:03:24Z</time>
      </trkpt>
      <trkpt lat="42.882465" lon="1.453194">
        <ele>1590.6</ele>
        <time>2013-03-02T10:03:35Z</time>
      </trkpt>
      <trkpt lat="42.882363" lon="1.453172">
        <ele>1590.2</ele>
        <time>2013-03-02T10:03:47Z</time>
      </trkpt>
      <trkpt lat="42.882269" lon="1.453155">
        <ele>1590.2</ele>
        <time>2013-03-02T10:03:57Z</time>
      </trkpt>
      <trkpt lat="42.882174" lon="1.453123">
        <ele>1589.7</ele>
        <time>2013-03-02T10:04:07Z</time>
      </trkpt>
      <trkpt lat="42.882073" lon="1.453111">
        <ele>1589.7</ele>
        <time>2013-03-02T10:04:17Z</time>
      </trkpt>
      <trkpt lat="42.881977" lon="1.453101">
        <ele>1590.2</ele>
        <time>2013-03-02T10:04:27Z</time>
      </trkpt>
      <trkpt lat="42.881893" lon="1.453088">
        <ele>1590.2</ele>
        <time>2013-03-02T10:04:37Z</time>
      </trkpt>
      <trkpt lat="42.881809" lon="1.453090">
        <ele>1590.6</ele>
        <time>2013-03-02T10:04:46Z</time>
      </trkpt>
      <trkpt lat="42.881719" lon="1.453078">
        <ele>1591.1</ele>
        <time>2013-03-02T10:04:56Z</time>
      </trkpt>
      <trkpt lat="42.881627" lon="1.453082">
        <ele>1591.6</ele>
        <time>2013-03-02T10:05:07Z</time>
      </trkpt>
      <trkpt lat="42.881535" lon="1.453094">
        <ele>1593.0</ele>
        <time>2013-03-02T10:05:17Z</time>
      </trkpt>
      <trkpt lat="42.881443" lon="1.453108">
        <ele>1594.0</ele>
        <time>2013-03-02T10:05:27Z</time>
      </trkpt>
      <trkpt lat="42.881348" lon="1.453132">
        <ele>1595.0</ele>
        <time>2013-03-02T10:05:37Z</time>
      </trkpt>
      <trkpt lat="42.881265" lon="1.453154">
        <ele>1595.9</ele>
        <time>2013-03-02T10:05:47Z</time>
      </trkpt>
      <trkpt lat="42.881174" lon="1.453172">
        <ele>1597.4</ele>
        <time>2013-03-02T10:05:58Z</time>
      </trkpt>
      <trkpt lat="42.881085" lon="1.453195">
        <ele>1597.8</ele>
        <time>2013-03-02T10:06:09Z</time>
      </trkpt>
      <trkpt lat="42.880987" lon="1.453236">
        <ele>1599.3</ele>
        <time>2013-03-02T10:06:21Z</time>
      </trkpt>
      <trkpt lat="42.880902" lon="1.453279">
        <ele>1601.2</ele>
        <time>2013-03-02T10:06:33Z</time>
      </trkpt>
      <trkpt lat="42.880815" lon="1.453345">
        <ele>1603.6</ele>
        <time>2013-03-02T10:06:46Z</time>
      </trkpt>
      <trkpt lat="42.880735" lon="1.453404">
        <ele>1604.6</ele>
        <time>2013-03-02T10:06:59Z</time>
      </trkpt>
      <trkpt lat="42.880646" lon="1.453477">
        <ele>1606.0</ele>
        <time>2013-03-02T10:07:13Z</time>
      </trkpt>
      <trkpt lat="42.880563" lon="1.453536">
        <ele>1607.0</ele>
        <time>2013-03-02T10:07:26Z</time>
      </trkpt>
      <trkpt lat="42.880477" lon="1.453614">
        <ele>1608.4</ele>
        <time>2013-03-02T10:07:39Z</time>
      </trkpt>
      <trkpt lat="42.880397" lon="1.453681">
        <ele>1610.3</ele>
        <time>2013-03-02T10:07:52Z</time>
      </trkpt>
      <trkpt lat="42.880316" lon="1.453760">
        <ele>1612.3</ele>
        <time>2013-03-02T10:08:06Z</time>
      </trkpt>
      <trkpt lat="42.880233" lon="1.453826">
        <ele>1613.7</ele>
        <time>2013-03-02T10:08:20Z</time>
      </trkpt>
      <trkpt lat="42.880147" lon="1.453890">
        <ele>1615.6</ele>
        <time>2013-03-02T10:08:33Z</time>
      </trkpt>
      <trkpt lat="42.880069" lon="1.453944">
        <ele>1617.1</ele>
        <time>2013-03-02T10:08:46Z</time>
      </trkpt>
      <trkpt lat="42.879987" lon="1.453998">
        <ele>1619.5</ele>
        <time>2013-03-02T10:08:57Z</time>
      </trkpt>
      <trkpt lat="42.879903" lon="1.454058">
        <ele>1620.4</ele>
        <time>2013-03-02T10:09:09Z</time>
      </trkpt>
      <trkpt lat="42.879811" lon="1.454110">
        <ele>1622.4</ele>
        <time>2013-03-02T10:09:21Z</time>
      </trkpt>
      <trkpt lat="42.879725" lon="1.454136">
        <ele>1622.4</ele>
        <time>2013-03-02T10:09:33Z</time>
      </trkpt>
      <trkpt lat="42.879645" lon="1.454189">
        <ele>1624.3</ele>
        <time>2013-03-02T10:09:45Z</time>
      </trkpt>
      <trkpt lat="42.879559" lon="1.454241">
        <ele>1624.8</ele>
        <time>2013-03-02T10:09:56Z</time>
        <name>Sommet des Griets</name>
      </trkpt>
      <trkpt lat="42.879465" lon="1.454234">
        <ele>1623.8</ele>
        <time>2013-03-02T10:10:06Z</time>
      </trkpt>
      <trkpt lat="42.879380" lon="1.454254">
        <ele>1623.8</ele>
        <time>2013-03-02T10:10:50Z</time>
      </trkpt>
      <trkpt lat="42.879356" lon="1.454209">
        <ele>1623.3</ele>
        <time>2013-03-02T10:17:31Z</time>
      </trkpt>
      <trkpt lat="42.879356" lon="1.454218">
        <ele>1622.8</ele>
        <time>2013-03-02T10:18:07Z</time>
      </trkpt>
      <trkpt lat="42.879256" lon="1.454634">
        <ele>1617.6</ele>
        <time>2013-03-02T13:05:08Z</time>
      </trkpt>
      <trkpt lat="42.879310" lon="1.454733">
        <ele>1617.1</ele>
        <time>2013-03-02T13:05:17Z</time>
      </trkpt>
      <trkpt lat="42.879369" lon="1.454831">
        <ele>1616.1</ele>
        <time>2013-03-02T13:05:26Z</time>
      </trkpt>
      <trkpt lat="42.879416" lon="1.454934">
        <ele>1615.6</ele>
        <time>2013-03-02T13:05:35Z</time>
      </trkpt>
      <trkpt lat="42.879475" lon="1.455036">
        <ele>1614.2</ele>
        <time>2013-03-02T13:05:46Z</time>
      </trkpt>
      <trkpt lat="42.879547" lon="1.455072">
        <ele>1614.2</ele>
        <time>2013-03-02T13:06:09Z</time>
      </trkpt>
      <trkpt lat="42.879516" lon="1.455206">
        <ele>1611.3</ele>
        <time>2013-03-02T13:06:43Z</time>
      </trkpt>
      <trkpt lat="42.879496" lon="1.455313">
        <ele>1608.4</ele>
        <time>2013-03-02T13:06:55Z</time>
      </trkpt>
      <trkpt lat="42.879460" lon="1.455440">
        <ele>1605.1</ele>
        <time>2013-03-02T13:07:05Z</time>
      </trkpt>
      <trkpt lat="42.879419" lon="1.455511">
        <ele>1604.1</ele>
        <time>2013-03-02T13:08:03Z</time>
      </trkpt>
      <trkpt lat="42.879446" lon="1.455619">
        <ele>1602.7</ele>
        <time>2013-03-02T13:08:45Z</time>
      </trkpt>
      <trkpt lat="42.879458" lon="1.455737">
        <ele>1600.2</ele>
        <time>2013-03-02T13:08:56Z</time>
      </trkpt>
      <trkpt lat="42.879482" lon="1.455856">
        <ele>1598.8</ele>
        <time>2013-03-02T13:09:07Z</time>
      </trkpt>
      <trkpt lat="42.879512" lon="1.455974">
        <ele>1596.9</ele>
        <time>2013-03-02T13:09:19Z</time>
      </trkpt>
      <trkpt lat="42.879563" lon="1.456087">
        <ele>1595.0</ele>
        <time>2013-03-02T13:09:30Z</time>
      </trkpt>
      <trkpt lat="42.879606" lon="1.456212">
        <ele>1593.0</ele>
        <time>2013-03-02T13:09:41Z</time>
      </trkpt>
      <trkpt lat="42.879592" lon="1.456287">
        <ele>1591.6</ele>
        <time>2013-03-02T13:10:22Z</time>
      </trkpt>
      <trkpt lat="42.879608" lon="1.456405">
        <ele>1590.2</ele>
        <time>2013-03-02T13:10:47Z</time>
      </trkpt>
      <trkpt lat="42.879592" lon="1.456517">
        <ele>1588.2</ele>
        <time>2013-03-02T13:10:59Z</time>
      </trkpt>
      <trkpt lat="42.879617" lon="1.456642">
        <ele>1586.8</ele>
        <time>2013-03-02T13:11:11Z</time>
      </trkpt>
      <trkpt lat="42.879647" lon="1.456765">
        <ele>1584.4</ele>
        <time>2013-03-02T13:11:29Z</time>
      </trkpt>
      <trkpt lat="42.879661" lon="1.456906">
        <ele>1581.0</ele>
        <time>2013-03-02T13:11:40Z</time>
      </trkpt>
      <trkpt lat="42.879691" lon="1.457027">
        <ele>1577.7</ele>
        <time>2013-03-02T13:11:51Z</time>
      </trkpt>
      <trkpt lat="42.879732" lon="1.457139">
        <ele>1575.7</ele>
        <time>2013-03-02T13:12:01Z</time>
      </trkpt>
      <trkpt lat="42.879772" lon="1.457261">
        <ele>1573.8</ele>
        <time>2013-03-02T13:12:11Z</time>
      </trkpt>
      <trkpt lat="42.879805" lon="1.457369">
        <ele>1573.8</ele>
        <time>2013-03-02T13:12:21Z</time>
      </trkpt>
      <trkpt lat="42.879848" lon="1.457483">
        <ele>1573.3</ele>
        <time>2013-03-02T13:12:31Z</time>
      </trkpt>
      <trkpt lat="42.879880" lon="1.457613">
        <ele>1571.4</ele>
        <time>2013-03-02T13:12:42Z</time>
      </trkpt>
      <trkpt lat="42.879925" lon="1.457727">
        <ele>1570.4</ele>
        <time>2013-03-02T13:12:52Z</time>
      </trkpt>
      <trkpt lat="42.879971" lon="1.457846">
        <ele>1569.5</ele>
        <time>2013-03-02T13:13:02Z</time>
      </trkpt>
      <trkpt lat="42.880013" lon="1.457967">
        <ele>1568.5</ele>
        <time>2013-03-02T13:13:12Z</time>
      </trkpt>
      <trkpt lat="42.880036" lon="1.458102">
        <ele>1567.1</ele>
        <time>2013-03-02T13:13:23Z</time>
      </trkpt>
      <trkpt lat="42.880082" lon="1.458209">
        <ele>1566.6</ele>
        <time>2013-03-02T13:13:35Z</time>
      </trkpt>
      <trkpt lat="42.880111" lon="1.458333">
        <ele>1565.2</ele>
        <time>2013-03-02T13:13:47Z</time>
      </trkpt>
      <trkpt lat="42.880164" lon="1.458456">
        <ele>1564.2</ele>
        <time>2013-03-02T13:14:00Z</time>
      </trkpt>
      <trkpt lat="42.880163" lon="1.458579">
        <ele>1562.8</ele>
        <time>2013-03-02T13:14:12Z</time>
      </trkpt>
      <trkpt lat="42.880219" lon="1.458681">
        <ele>1559.9</ele>
        <time>2013-03-02T13:14:24Z</time>
      </trkpt>
      <trkpt lat="42.880268" lon="1.458780">
        <ele>1558.4</ele>
        <time>2013-03-02T13:14:35Z</time>
      </trkpt>
      <trkpt lat="42.880276" lon="1.458851">
        <ele>1557.0</ele>
        <time>2013-03-02T13:15:12Z</time>
      </trkpt>
      <trkpt lat="42.880274" lon="1.458844">
        <ele>1556.5</ele>
        <time>2013-03-02T13:20:14Z</time>
      </trkpt>
      <trkpt lat="42.880298" lon="1.458904">
        <ele>1556.5</ele>
        <time>2013-03-02T13:21:02Z</time>
      </trkpt>
      <trkpt lat="42.880364" lon="1.458993">
        <ele>1555.1</ele>
        <time>2013-03-02T13:21:13Z</time>
      </trkpt>
      <trkpt lat="42.880411" lon="1.459093">
        <ele>1553.6</ele>
        <time>2013-03-02T13:21:33Z</time>
      </trkpt>
      <trkpt lat="42.880432" lon="1.459172">
        <ele>1551.7</ele>
        <time>2013-03-02T13:22:48Z</time>
      </trkpt>
      <trkpt lat="42.880490" lon="1.459268">
        <ele>1549.3</ele>
        <time>2013-03-02T13:23:16Z</time>
      </trkpt>
      <trkpt lat="42.880540" lon="1.459374">
        <ele>1545.9</ele>
        <time>2013-03-02T13:23:28Z</time>
      </trkpt>
      <trkpt lat="42.880570" lon="1.459482">
        <ele>1543.1</ele>
        <time>2013-03-02T13:23:43Z</time>
      </trkpt>
      <trkpt lat="42.880620" lon="1.459595">
        <ele>1541.1</ele>
        <time>2013-03-02T13:23:54Z</time>
      </trkpt>
      <trkpt lat="42.880668" lon="1.459714">
        <ele>1538.7</ele>
        <time>2013-03-02T13:24:05Z</time>
      </trkpt>
      <trkpt lat="42.880711" lon="1.459830">
        <ele>1535.8</ele>
        <time>2013-03-02T13:24:15Z</time>
      </trkpt>
      <trkpt lat="42.880757" lon="1.459943">
        <ele>1532.5</ele>
        <time>2013-03-02T13:24:26Z</time>
      </trkpt>
      <trkpt lat="42.880781" lon="1.460062">
        <ele>1529.6</ele>
        <time>2013-03-02T13:24:34Z</time>
      </trkpt>
      <trkpt lat="42.880819" lon="1.460186">
        <ele>1525.8</ele>
        <time>2013-03-02T13:24:43Z</time>
      </trkpt>
      <trkpt lat="42.880880" lon="1.460291">
        <ele>1522.9</ele>
        <time>2013-03-02T13:24:53Z</time>
      </trkpt>
      <trkpt lat="42.880929" lon="1.460397">
        <ele>1520.5</ele>
        <time>2013-03-02T13:25:16Z</time>
      </trkpt>
      <trkpt lat="42.880988" lon="1.460502">
        <ele>1517.6</ele>
        <time>2013-03-02T13:25:26Z</time>
      </trkpt>
      <trkpt lat="42.881057" lon="1.460595">
        <ele>1514.7</ele>
        <time>2013-03-02T13:25:35Z</time>
      </trkpt>
      <trkpt lat="42.881120" lon="1.460692">
        <ele>1512.3</ele>
        <time>2013-03-02T13:25:44Z</time>
      </trkpt>
      <trkpt lat="42.881183" lon="1.460785">
        <ele>1510.8</ele>
        <time>2013-03-02T13:25:53Z</time>
      </trkpt>
      <trkpt lat="42.881235" lon="1.460890">
        <ele>1509.4</ele>
        <time>2013-03-02T13:26:02Z</time>
      </trkpt>
      <trkpt lat="42.881282" lon="1.461013">
        <ele>1508.4</ele>
        <time>2013-03-02T13:26:13Z</time>
      </trkpt>
      <trkpt lat="42.881342" lon="1.461115">
        <ele>1508.9</ele>
        <time>2013-03-02T13:26:24Z</time>
      </trkpt>
      <trkpt lat="42.881382" lon="1.461232">
        <ele>1508.0</ele>
        <time>2013-03-02T13:26:34Z</time>
      </trkpt>
      <trkpt lat="42.881405" lon="1.461344">
        <ele>1506.5</ele>
        <time>2013-03-02T13:26:44Z</time>
      </trkpt>
      <trkpt lat="42.881431" lon="1.461471">
        <ele>1504.1</ele>
        <time>2013-03-02T13:26:55Z</time>
      </trkpt>
      <trkpt lat="42.881431" lon="1.461612">
        <ele>1502.2</ele>
        <time>2013-03-02T13:27:05Z</time>
      </trkpt>
      <trkpt lat="42.881467" lon="1.461741">
        <ele>1499.3</ele>
        <time>2013-03-02T13:27:15Z</time>
      </trkpt>
      <trkpt lat="42.881499" lon="1.461860">
        <ele>1496.9</ele>
        <time>2013-03-02T13:27:24Z</time>
      </trkpt>
      <trkpt lat="42.881526" lon="1.461977">
        <ele>1495.0</ele>
        <time>2013-03-02T13:27:33Z</time>
      </trkpt>
      <trkpt lat="42.881535" lon="1.462106">
        <ele>1492.6</ele>
        <time>2013-03-02T13:27:42Z</time>
      </trkpt>
      <trkpt lat="42.881556" lon="1.462231">
        <ele>1490.7</ele>
        <time>2013-03-02T13:27:51Z</time>
      </trkpt>
      <trkpt lat="42.881581" lon="1.462366">
        <ele>1488.3</ele>
        <time>2013-03-02T13:28:01Z</time>
      </trkpt>
      <trkpt lat="42.881587" lon="1.462481">
        <ele>1487.3</ele>
        <time>2013-03-02T13:28:40Z</time>
      </trkpt>
      <trkpt lat="42.881651" lon="1.462588">
        <ele>1484.9</ele>
        <time>2013-03-02T13:28:51Z</time>
      </trkpt>
      <trkpt lat="42.881700" lon="1.462698">
        <ele>1483.0</ele>
        <time>2013-03-02T13:29:01Z</time>
      </trkpt>
      <trkpt lat="42.881736" lon="1.462819">
        <ele>1481.1</ele>
        <time>2013-03-02T13:29:11Z</time>
      </trkpt>
      <trkpt lat="42.881782" lon="1.462937">
        <ele>1475.3</ele>
        <time>2013-03-02T13:29:21Z</time>
      </trkpt>
      <trkpt lat="42.881808" lon="1.463058">
        <ele>1477.7</ele>
        <time>2013-03-02T13:29:31Z</time>
      </trkpt>
      <trkpt lat="42.881837" lon="1.463181">
        <ele>1476.2</ele>
        <time>2013-03-02T13:29:42Z</time>
      </trkpt>
      <trkpt lat="42.881821" lon="1.463309">
        <ele>1473.8</ele>
        <time>2013-03-02T13:29:52Z</time>
      </trkpt>
      <trkpt lat="42.881805" lon="1.463438">
        <ele>1471.4</ele>
        <time>2013-03-02T13:30:03Z</time>
      </trkpt>
      <trkpt lat="42.881788" lon="1.463557">
        <ele>1469.0</ele>
        <time>2013-03-02T13:30:13Z</time>
      </trkpt>
      <trkpt lat="42.881804" lon="1.463672">
        <ele>1465.7</ele>
        <time>2013-03-02T13:30:25Z</time>
      </trkpt>
      <trkpt lat="42.881859" lon="1.463779">
        <ele>1462.8</ele>
        <time>2013-03-02T13:30:35Z</time>
      </trkpt>
      <trkpt lat="42.881906" lon="1.463875">
        <ele>1458.5</ele>
        <time>2013-03-02T13:30:46Z</time>
      </trkpt>
      <trkpt lat="42.881957" lon="1.463979">
        <ele>1455.1</ele>
        <time>2013-03-02T13:30:57Z</time>
      </trkpt>
      <trkpt lat="42.881993" lon="1.464259">
        <ele>1429.5</ele>
        <time>2013-03-02T13:31:25Z</time>
      </trkpt>
      <trkpt lat="42.882002" lon="1.464432">
        <ele>1423.8</ele>
        <time>2013-03-02T13:36:58Z</time>
      </trkpt>
      <trkpt lat="42.882018" lon="1.464582">
        <ele>1433.0</ele>
        <time>2013-03-02T13:38:37Z</time>
      </trkpt>
      <trkpt lat="42.881965" lon="1.464665">
        <ele>1432.0</ele>
        <time>2013-03-02T13:39:24Z</time>
      </trkpt>
      <trkpt lat="42.881869" lon="1.464762">
        <ele>1429.1</ele>
        <time>2013-03-02T13:39:38Z</time>
      </trkpt>
      <trkpt lat="42.881795" lon="1.464854">
        <ele>1427.2</ele>
        <time>2013-03-02T13:39:48Z</time>
      </trkpt>
      <trkpt lat="42.881814" lon="1.464907">
        <ele>1422.9</ele>
        <time>2013-03-02T13:40:05Z</time>
      </trkpt>
      <trkpt lat="42.881791" lon="1.465003">
        <ele>1421.4</ele>
        <time>2013-03-02T13:41:21Z</time>
      </trkpt>
      <trkpt lat="42.881734" lon="1.465130">
        <ele>1420.5</ele>
        <time>2013-03-02T13:41:37Z</time>
      </trkpt>
      <trkpt lat="42.881667" lon="1.465247">
        <ele>1415.7</ele>
        <time>2013-03-02T13:41:51Z</time>
      </trkpt>
      <trkpt lat="42.881654" lon="1.465398">
        <ele>1416.2</ele>
        <time>2013-03-02T13:42:08Z</time>
      </trkpt>
      <trkpt lat="42.881691" lon="1.465534">
        <ele>1412.8</ele>
        <time>2013-03-02T13:42:21Z</time>
      </trkpt>
      <trkpt lat="42.881688" lon="1.465685">
        <ele>1408.5</ele>
        <time>2013-03-02T13:42:36Z</time>
      </trkpt>
      <trkpt lat="42.881622" lon="1.465855">
        <ele>1404.1</ele>
        <time>2013-03-02T13:42:56Z</time>
      </trkpt>
      <trkpt lat="42.881594" lon="1.466062">
        <ele>1400.3</ele>
        <time>2013-03-02T13:43:15Z</time>
      </trkpt>
      <trkpt lat="42.881606" lon="1.466204">
        <ele>1399.3</ele>
        <time>2013-03-02T13:43:32Z</time>
      </trkpt>
      <trkpt lat="42.881572" lon="1.466400">
        <ele>1396.9</ele>
        <time>2013-03-02T13:43:51Z</time>
      </trkpt>
      <trkpt lat="42.881575" lon="1.466495">
        <ele>1394.5</ele>
        <time>2013-03-02T13:44:51Z</time>
      </trkpt>
      <trkpt lat="42.881625" lon="1.466640">
        <ele>1389.2</ele>
        <time>2013-03-02T13:46:48Z</time>
      </trkpt>
      <trkpt lat="42.881660" lon="1.466837">
        <ele>1386.4</ele>
        <time>2013-03-02T13:47:17Z</time>
      </trkpt>
      <trkpt lat="42.881807" lon="1.466946">
        <ele>1384.0</ele>
        <time>2013-03-02T13:48:12Z</time>
      </trkpt>
      <trkpt lat="42.881799" lon="1.467064">
        <ele>1381.1</ele>
        <time>2013-03-02T13:48:33Z</time>
      </trkpt>
      <trkpt lat="42.881773" lon="1.467251">
        <ele>1375.8</ele>
        <time>2013-03-02T13:49:04Z</time>
      </trkpt>
      <trkpt lat="42.881811" lon="1.467430">
        <ele>1369.1</ele>
        <time>2013-03-02T13:49:34Z</time>
      </trkpt>
      <trkpt lat="42.881881" lon="1.467620">
        <ele>1361.4</ele>
        <time>2013-03-02T13:50:17Z</time>
      </trkpt>
      <trkpt lat="42.882013" lon="1.467686">
        <ele>1360.4</ele>
        <time>2013-03-02T13:50:45Z</time>
      </trkpt>
      <trkpt lat="42.882083" lon="1.467781">
        <ele>1357.5</ele>
        <time>2013-03-02T13:51:05Z</time>
      </trkpt>
      <trkpt lat="42.882139" lon="1.467897">
        <ele>1357.0</ele>
        <time>2013-03-02T13:51:43Z</time>
      </trkpt>
      <trkpt lat="42.882300" lon="1.467812">
        <ele>1354.2</ele>
        <time>2013-03-02T13:52:25Z</time>
      </trkpt>
      <trkpt lat="42.882490" lon="1.467784">
        <ele>1352.2</ele>
        <time>2013-03-02T13:52:52Z</time>
      </trkpt>
      <trkpt lat="42.882494" lon="1.467839">
        <ele>1350.8</ele>
        <time>2013-03-02T13:53:47Z</time>
      </trkpt>
      <trkpt lat="42.882534" lon="1.467893">
        <ele>1349.3</ele>
        <time>2013-03-02T13:54:20Z</time>
      </trkpt>
      <trkpt lat="42.882606" lon="1.467984">
        <ele>1344.5</ele>
        <time>2013-03-02T13:54:39Z</time>
      </trkpt>
      <trkpt lat="42.882719" lon="1.468079">
        <ele>1341.2</ele>
        <time>2013-03-02T13:54:57Z</time>
      </trkpt>
      <trkpt lat="42.882849" lon="1.468221">
        <ele>1335.4</ele>
        <time>2013-03-02T13:55:22Z</time>
      </trkpt>
      <trkpt lat="42.882963" lon="1.468317">
        <ele>1332.5</ele>
        <time>2013-03-02T13:55:38Z</time>
      </trkpt>
      <trkpt lat="42.883109" lon="1.468360">
        <ele>1327.2</ele>
        <time>2013-03-02T13:56:03Z</time>
      </trkpt>
      <trkpt lat="42.883249" lon="1.468454">
        <ele>1323.4</ele>
        <time>2013-03-02T13:57:09Z</time>
      </trkpt>
      <trkpt lat="42.883371" lon="1.468484">
        <ele>1320.0</ele>
        <time>2013-03-02T13:57:21Z</time>
      </trkpt>
      <trkpt lat="42.883592" lon="1.468541">
        <ele>1311.4</ele>
        <time>2013-03-02T13:57:53Z</time>
      </trkpt>
      <trkpt lat="42.883676" lon="1.468648">
        <ele>1309.9</ele>
        <time>2013-03-02T13:58:06Z</time>
      </trkpt>
      <trkpt lat="42.883883" lon="1.468729">
        <ele>1305.1</ele>
        <time>2013-03-02T13:58:56Z</time>
      </trkpt>
      <trkpt lat="42.883979" lon="1.468709">
        <ele>1301.8</ele>
        <time>2013-03-02T13:59:09Z</time>
      </trkpt>
      <trkpt lat="42.884191" lon="1.468626">
        <ele>1300.8</ele>
        <time>2013-03-02T13:59:40Z</time>
      </trkpt>
      <trkpt lat="42.884364" lon="1.468722">
        <ele>1295.5</ele>
        <time>2013-03-02T14:00:38Z</time>
      </trkpt>
      <trkpt lat="42.884536" lon="1.468773">
        <ele>1291.2</ele>
        <time>2013-03-02T14:01:08Z</time>
      </trkpt>
      <trkpt lat="42.884682" lon="1.468752">
        <ele>1289.3</ele>
        <time>2013-03-02T14:01:27Z</time>
      </trkpt>
      <trkpt lat="42.884827" lon="1.468678">
        <ele>1286.9</ele>
        <time>2013-03-02T14:01:44Z</time>
      </trkpt>
      <trkpt lat="42.885004" lon="1.468722">
        <ele>1282.5</ele>
        <time>2013-03-02T14:02:49Z</time>
      </trkpt>
      <trkpt lat="42.885189" lon="1.468792">
        <ele>1279.2</ele>
        <time>2013-03-02T14:03:07Z</time>
      </trkpt>
      <trkpt lat="42.885325" lon="1.468846">
        <ele>1275.3</ele>
        <time>2013-03-02T14:03:24Z</time>
      </trkpt>
      <trkpt lat="42.885454" lon="1.468783">
        <ele>1273.9</ele>
        <time>2013-03-02T14:03:44Z</time>
      </trkpt>
      <trkpt lat="42.885526" lon="1.468708">
        <ele>1282.4</ele>
        <time>2013-03-02T14:05:25Z</time>
        <name>Anc. Mais. Forest.</name>
      </trkpt>
      <trkpt lat="42.885602" lon="1.468590">
        <ele>1282.7</ele>
        <time>2013-03-02T14:11:51Z</time>
      </trkpt>
      <trkpt lat="42.885645" lon="1.468450">
        <ele>1283.5</ele>
        <time>2013-03-02T14:12:20Z</time>
      </trkpt>
      <trkpt lat="42.885707" lon="1.468371">
        <ele>1283.0</ele>
        <time>2013-03-02T14:13:32Z</time>
      </trkpt>
      <trkpt lat="42.885728" lon="1.468165">
        <ele>1284.9</ele>
        <time>2013-03-02T14:13:53Z</time>
      </trkpt>
      <trkpt lat="42.885768" lon="1.467945">
        <ele>1285.9</ele>
        <time>2013-03-02T14:14:10Z</time>
      </trkpt>
      <trkpt lat="42.885820" lon="1.467761">
        <ele>1286.9</ele>
        <time>2013-03-02T14:14:29Z</time>
      </trkpt>
      <trkpt lat="42.885909" lon="1.467596">
        <ele>1287.8</ele>
        <time>2013-03-02T14:14:46Z</time>
      </trkpt>
      <trkpt lat="42.885981" lon="1.467393">
        <ele>1286.9</ele>
        <time>2013-03-02T14:15:08Z</time>
      </trkpt>
      <trkpt lat="42.886027" lon="1.467253">
        <ele>1288.8</ele>
        <time>2013-03-02T14:15:26Z</time>
      </trkpt>
      <trkpt lat="42.886047" lon="1.467071">
        <ele>1290.2</ele>
        <time>2013-03-02T14:15:46Z</time>
      </trkpt>
      <trkpt lat="42.886098" lon="1.466966">
        <ele>1292.2</ele>
        <time>2013-03-02T14:16:05Z</time>
      </trkpt>
      <trkpt lat="42.886085" lon="1.466769">
        <ele>1294.6</ele>
        <time>2013-03-02T14:16:23Z</time>
      </trkpt>
      <trkpt lat="42.886109" lon="1.466570">
        <ele>1295.5</ele>
        <time>2013-03-02T14:16:39Z</time>
      </trkpt>
      <trkpt lat="42.886153" lon="1.466419">
        <ele>1297.4</ele>
        <time>2013-03-02T14:16:57Z</time>
      </trkpt>
      <trkpt lat="42.886192" lon="1.466246">
        <ele>1297.4</ele>
        <time>2013-03-02T14:17:15Z</time>
      </trkpt>
      <trkpt lat="42.886196" lon="1.466052">
        <ele>1298.4</ele>
        <time>2013-03-02T14:17:36Z</time>
      </trkpt>
      <trkpt lat="42.886151" lon="1.465809">
        <ele>1298.9</ele>
        <time>2013-03-02T14:18:27Z</time>
      </trkpt>
      <trkpt lat="42.886207" lon="1.465672">
        <ele>1300.3</ele>
        <time>2013-03-02T14:18:46Z</time>
      </trkpt>
      <trkpt lat="42.886221" lon="1.465503">
        <ele>1301.3</ele>
        <time>2013-03-02T14:19:04Z</time>
      </trkpt>
      <trkpt lat="42.886096" lon="1.465333">
        <ele>1300.8</ele>
        <time>2013-03-02T14:20:21Z</time>
      </trkpt>
      <trkpt lat="42.886059" lon="1.465096">
        <ele>1301.3</ele>
        <time>2013-03-02T14:20:46Z</time>
      </trkpt>
      <trkpt lat="42.885973" lon="1.464837">
        <ele>1303.7</ele>
        <time>2013-03-02T14:21:16Z</time>
      </trkpt>
      <trkpt lat="42.885934" lon="1.464595">
        <ele>1305.6</ele>
        <time>2013-03-02T14:22:04Z</time>
      </trkpt>
      <trkpt lat="42.885918" lon="1.464409">
        <ele>1305.1</ele>
        <time>2013-03-02T14:22:55Z</time>
      </trkpt>
      <trkpt lat="42.885897" lon="1.464243">
        <ele>1305.1</ele>
        <time>2013-03-02T14:23:20Z</time>
      </trkpt>
      <trkpt lat="42.885813" lon="1.464043">
        <ele>1306.6</ele>
        <time>2013-03-02T14:23:48Z</time>
      </trkpt>
      <trkpt lat="42.885736" lon="1.463738">
        <ele>1308.5</ele>
        <time>2013-03-02T14:24:19Z</time>
      </trkpt>
      <trkpt lat="42.885734" lon="1.463561">
        <ele>1309.0</ele>
        <time>2013-03-02T14:25:10Z</time>
      </trkpt>
      <trkpt lat="42.885617" lon="1.463490">
        <ele>1309.0</ele>
        <time>2013-03-02T14:27:31Z</time>
      </trkpt>
      <trkpt lat="42.885638" lon="1.463315">
        <ele>1310.9</ele>
        <time>2013-03-02T14:27:55Z</time>
      </trkpt>
      <trkpt lat="42.885642" lon="1.463057">
        <ele>1313.3</ele>
        <time>2013-03-02T14:28:18Z</time>
      </trkpt>
      <trkpt lat="42.885675" lon="1.462997">
        <ele>1315.7</ele>
        <time>2013-03-02T14:28:49Z</time>
      </trkpt>
      <trkpt lat="42.885661" lon="1.462980">
        <ele>1317.6</ele>
        <time>2013-03-02T14:29:27Z</time>
      </trkpt>
      <trkpt lat="42.885789" lon="1.462949">
        <ele>1315.2</ele>
        <time>2013-03-02T14:29:54Z</time>
      </trkpt>
      <trkpt lat="42.885899" lon="1.462918">
        <ele>1316.7</ele>
        <time>2013-03-02T14:30:44Z</time>
      </trkpt>
      <trkpt lat="42.886008" lon="1.462851">
        <ele>1319.1</ele>
        <time>2013-03-02T14:31:09Z</time>
      </trkpt>
      <trkpt lat="42.886038" lon="1.462692">
        <ele>1320.5</ele>
        <time>2013-03-02T14:31:29Z</time>
      </trkpt>
      <trkpt lat="42.886117" lon="1.462549">
        <ele>1322.4</ele>
        <time>2013-03-02T14:31:44Z</time>
      </trkpt>
      <trkpt lat="42.886151" lon="1.462406">
        <ele>1323.9</ele>
        <time>2013-03-02T14:32:04Z</time>
      </trkpt>
      <trkpt lat="42.886164" lon="1.462274">
        <ele>1325.8</ele>
        <time>2013-03-02T14:32:23Z</time>
      </trkpt>
      <trkpt lat="42.886187" lon="1.462116">
        <ele>1326.8</ele>
        <time>2013-03-02T14:32:41Z</time>
      </trkpt>
      <trkpt lat="42.886232" lon="1.462043">
        <ele>1329.6</ele>
        <time>2013-03-02T14:33:44Z</time>
      </trkpt>
      <trkpt lat="42.886217" lon="1.461896">
        <ele>1331.1</ele>
        <time>2013-03-02T14:34:01Z</time>
      </trkpt>
      <trkpt lat="42.886214" lon="1.461741">
        <ele>1332.0</ele>
        <time>2013-03-02T14:34:24Z</time>
      </trkpt>
      <trkpt lat="42.886184" lon="1.461633">
        <ele>1336.4</ele>
        <time>2013-03-02T14:34:49Z</time>
      </trkpt>
      <trkpt lat="42.886264" lon="1.461531">
        <ele>1336.8</ele>
        <time>2013-03-02T14:35:08Z</time>
      </trkpt>
      <trkpt lat="42.886313" lon="1.461453">
        <ele>1337.3</ele>
        <time>2013-03-02T14:35:55Z</time>
      </trkpt>
      <trkpt lat="42.886389" lon="1.461347">
        <ele>1336.4</ele>
        <time>2013-03-02T14:36:09Z</time>
      </trkpt>
      <trkpt lat="42.886478" lon="1.461255">
        <ele>1336.8</ele>
        <time>2013-03-02T14:36:22Z</time>
      </trkpt>
      <trkpt lat="42.886552" lon="1.461161">
        <ele>1337.3</ele>
        <time>2013-03-02T14:36:37Z</time>
      </trkpt>
      <trkpt lat="42.886618" lon="1.461068">
        <ele>1337.3</ele>
        <time>2013-03-02T14:36:48Z</time>
      </trkpt>
      <trkpt lat="42.886690" lon="1.460980">
        <ele>1336.8</ele>
        <time>2013-03-02T14:37:00Z</time>
      </trkpt>
      <trkpt lat="42.886753" lon="1.460882">
        <ele>1336.4</ele>
        <time>2013-03-02T14:37:11Z</time>
      </trkpt>
      <trkpt lat="42.886811" lon="1.460787">
        <ele>1335.9</ele>
        <time>2013-03-02T14:37:24Z</time>
      </trkpt>
      <trkpt lat="42.886878" lon="1.460707">
        <ele>1334.9</ele>
        <time>2013-03-02T14:37:34Z</time>
      </trkpt>
      <trkpt lat="42.886911" lon="1.460662">
        <ele>1334.4</ele>
        <time>2013-03-02T14:37:43Z</time>
      </trkpt>
      <trkpt lat="42.886990" lon="1.460566">
        <ele>1332.5</ele>
        <time>2013-03-02T14:37:53Z</time>
      </trkpt>
      <trkpt lat="42.887067" lon="1.460498">
        <ele>1331.6</ele>
        <time>2013-03-02T14:38:02Z</time>
      </trkpt>
      <trkpt lat="42.887128" lon="1.460389">
        <ele>1330.6</ele>
        <time>2013-03-02T14:38:29Z</time>
      </trkpt>
      <trkpt lat="42.887213" lon="1.460319">
        <ele>1329.2</ele>
        <time>2013-03-02T14:38:44Z</time>
      </trkpt>
      <trkpt lat="42.887291" lon="1.460285">
        <ele>1329.2</ele>
        <time>2013-03-02T14:39:07Z</time>
      </trkpt>
      <trkpt lat="42.887355" lon="1.460205">
        <ele>1327.7</ele>
        <time>2013-03-02T14:39:18Z</time>
      </trkpt>
      <trkpt lat="42.887424" lon="1.460111">
        <ele>1326.8</ele>
        <time>2013-03-02T14:39:29Z</time>
      </trkpt>
      <trkpt lat="42.887491" lon="1.459992">
        <ele>1326.3</ele>
        <time>2013-03-02T14:39:39Z</time>
      </trkpt>
      <trkpt lat="42.887552" lon="1.459889">
        <ele>1325.8</ele>
        <time>2013-03-02T14:39:49Z</time>
      </trkpt>
      <trkpt lat="42.887637" lon="1.459844">
        <ele>1325.3</ele>
        <time>2013-03-02T14:39:59Z</time>
      </trkpt>
      <trkpt lat="42.887738" lon="1.459791">
        <ele>1324.8</ele>
        <time>2013-03-02T14:40:10Z</time>
      </trkpt>
      <trkpt lat="42.887835" lon="1.459730">
        <ele>1326.3</ele>
        <time>2013-03-02T14:40:21Z</time>
      </trkpt>
      <trkpt lat="42.887910" lon="1.459673">
        <ele>1327.2</ele>
        <time>2013-03-02T14:40:31Z</time>
      </trkpt>
      <trkpt lat="42.887959" lon="1.459591">
        <ele>1327.2</ele>
        <time>2013-03-02T14:40:41Z</time>
      </trkpt>
      <trkpt lat="42.888031" lon="1.459512">
        <ele>1327.2</ele>
        <time>2013-03-02T14:40:50Z</time>
      </trkpt>
      <trkpt lat="42.888128" lon="1.459478">
        <ele>1328.2</ele>
        <time>2013-03-02T14:41:00Z</time>
      </trkpt>
      <trkpt lat="42.888248" lon="1.459430">
        <ele>1328.7</ele>
        <time>2013-03-02T14:41:10Z</time>
      </trkpt>
      <trkpt lat="42.888372" lon="1.459422">
        <ele>1329.6</ele>
        <time>2013-03-02T14:41:23Z</time>
      </trkpt>
      <trkpt lat="42.888475" lon="1.459395">
        <ele>1331.1</ele>
        <time>2013-03-02T14:41:35Z</time>
      </trkpt>
      <trkpt lat="42.888556" lon="1.459450">
        <ele>1333.5</ele>
        <time>2013-03-02T14:41:49Z</time>
        <name>Cabane d Estibat</name>
      </trkpt>
      <trkpt lat="42.888564" lon="1.459489">
        <ele>1333.0</ele>
        <time>2013-03-02T14:42:14Z</time>
      </trkpt>
      <trkpt lat="42.888571" lon="1.459459">
        <ele>1332.5</ele>
        <time>2013-03-02T15:09:03Z</time>
      </trkpt>
      <trkpt lat="42.888583" lon="1.459493">
        <ele>1333.0</ele>
        <time>2013-03-02T15:11:01Z</time>
      </trkpt>
      <trkpt lat="42.888698" lon="1.459407">
        <ele>1332.5</ele>
        <time>2013-03-02T15:11:50Z</time>
      </trkpt>
      <trkpt lat="42.888763" lon="1.459348">
        <ele>1330.6</ele>
        <time>2013-03-02T15:12:05Z</time>
      </trkpt>
      <trkpt lat="42.888824" lon="1.459267">
        <ele>1329.2</ele>
        <time>2013-03-02T15:12:19Z</time>
      </trkpt>
      <trkpt lat="42.888913" lon="1.459300">
        <ele>1326.8</ele>
        <time>2013-03-02T15:12:31Z</time>
      </trkpt>
      <trkpt lat="42.888979" lon="1.459371">
        <ele>1324.3</ele>
        <time>2013-03-02T15:12:42Z</time>
      </trkpt>
      <trkpt lat="42.889054" lon="1.459458">
        <ele>1318.6</ele>
        <time>2013-03-02T15:12:54Z</time>
      </trkpt>
      <trkpt lat="42.889126" lon="1.459472">
        <ele>1323.4</ele>
        <time>2013-03-02T15:13:10Z</time>
      </trkpt>
      <trkpt lat="42.889224" lon="1.459487">
        <ele>1324.3</ele>
        <time>2013-03-02T15:13:24Z</time>
      </trkpt>
      <trkpt lat="42.889314" lon="1.459534">
        <ele>1321.9</ele>
        <time>2013-03-02T15:13:36Z</time>
      </trkpt>
      <trkpt lat="42.889419" lon="1.459533">
        <ele>1319.6</ele>
        <time>2013-03-02T15:13:53Z</time>
      </trkpt>
      <trkpt lat="42.889513" lon="1.459557">
        <ele>1315.7</ele>
        <time>2013-03-02T15:14:11Z</time>
      </trkpt>
      <trkpt lat="42.889597" lon="1.459625">
        <ele>1312.8</ele>
        <time>2013-03-02T15:14:25Z</time>
      </trkpt>
      <trkpt lat="42.889677" lon="1.459665">
        <ele>1310.9</ele>
        <time>2013-03-02T15:14:39Z</time>
      </trkpt>
      <trkpt lat="42.889782" lon="1.459625">
        <ele>1309.9</ele>
        <time>2013-03-02T15:16:22Z</time>
      </trkpt>
      <trkpt lat="42.889909" lon="1.459662">
        <ele>1308.0</ele>
        <time>2013-03-02T15:16:35Z</time>
      </trkpt>
      <trkpt lat="42.889989" lon="1.459711">
        <ele>1305.6</ele>
        <time>2013-03-02T15:16:47Z</time>
      </trkpt>
      <trkpt lat="42.890081" lon="1.459774">
        <ele>1303.7</ele>
        <time>2013-03-02T15:17:00Z</time>
      </trkpt>
      <trkpt lat="42.890171" lon="1.459813">
        <ele>1301.3</ele>
        <time>2013-03-02T15:17:11Z</time>
      </trkpt>
      <trkpt lat="42.890276" lon="1.459815">
        <ele>1298.9</ele>
        <time>2013-03-02T15:17:26Z</time>
      </trkpt>
      <trkpt lat="42.890372" lon="1.459815">
        <ele>1297.4</ele>
        <time>2013-03-02T15:17:36Z</time>
      </trkpt>
      <trkpt lat="42.890477" lon="1.459833">
        <ele>1295.5</ele>
        <time>2013-03-02T15:17:50Z</time>
      </trkpt>
      <trkpt lat="42.890574" lon="1.459821">
        <ele>1295.0</ele>
        <time>2013-03-02T15:18:01Z</time>
      </trkpt>
      <trkpt lat="42.890675" lon="1.459792">
        <ele>1290.2</ele>
        <time>2013-03-02T15:18:15Z</time>
      </trkpt>
      <trkpt lat="42.890789" lon="1.459771">
        <ele>1287.8</ele>
        <time>2013-03-02T15:18:30Z</time>
      </trkpt>
      <trkpt lat="42.890902" lon="1.459760">
        <ele>1286.9</ele>
        <time>2013-03-02T15:18:47Z</time>
      </trkpt>
      <trkpt lat="42.891025" lon="1.459790">
        <ele>1284.9</ele>
        <time>2013-03-02T15:19:02Z</time>
      </trkpt>
      <trkpt lat="42.891110" lon="1.459765">
        <ele>1284.0</ele>
        <time>2013-03-02T15:19:36Z</time>
      </trkpt>
      <trkpt lat="42.891255" lon="1.459735">
        <ele>1283.0</ele>
        <time>2013-03-02T15:19:58Z</time>
      </trkpt>
      <trkpt lat="42.891358" lon="1.459746">
        <ele>1282.1</ele>
        <time>2013-03-02T15:20:17Z</time>
      </trkpt>
      <trkpt lat="42.891460" lon="1.459753">
        <ele>1280.1</ele>
        <time>2013-03-02T15:20:30Z</time>
      </trkpt>
      <trkpt lat="42.891577" lon="1.459789">
        <ele>1279.2</ele>
        <time>2013-03-02T15:20:48Z</time>
      </trkpt>
      <trkpt lat="42.891648" lon="1.459867">
        <ele>1278.2</ele>
        <time>2013-03-02T15:22:27Z</time>
      </trkpt>
      <trkpt lat="42.891738" lon="1.459910">
        <ele>1277.2</ele>
        <time>2013-03-02T15:22:40Z</time>
      </trkpt>
      <trkpt lat="42.891832" lon="1.459984">
        <ele>1274.8</ele>
        <time>2013-03-02T15:22:52Z</time>
      </trkpt>
      <trkpt lat="42.891916" lon="1.460049">
        <ele>1272.4</ele>
        <time>2013-03-02T15:23:04Z</time>
      </trkpt>
      <trkpt lat="42.891986" lon="1.460138">
        <ele>1272.0</ele>
        <time>2013-03-02T15:23:15Z</time>
      </trkpt>
      <trkpt lat="42.892064" lon="1.460226">
        <ele>1271.5</ele>
        <time>2013-03-02T15:23:26Z</time>
      </trkpt>
      <trkpt lat="42.892140" lon="1.460322">
        <ele>1270.5</ele>
        <time>2013-03-02T15:23:38Z</time>
      </trkpt>
      <trkpt lat="42.892223" lon="1.460404">
        <ele>1269.6</ele>
        <time>2013-03-02T15:23:50Z</time>
      </trkpt>
      <trkpt lat="42.892173" lon="1.460353">
        <ele>1268.1</ele>
        <time>2013-03-02T15:25:03Z</time>
      </trkpt>
      <trkpt lat="42.892246" lon="1.460478">
        <ele>1267.2</ele>
        <time>2013-03-02T15:25:27Z</time>
      </trkpt>
      <trkpt lat="42.892326" lon="1.460544">
        <ele>1267.2</ele>
        <time>2013-03-02T15:25:51Z</time>
      </trkpt>
      <trkpt lat="42.892399" lon="1.460639">
        <ele>1267.2</ele>
        <time>2013-03-02T15:26:04Z</time>
      </trkpt>
      <trkpt lat="42.892463" lon="1.460743">
        <ele>1267.2</ele>
        <time>2013-03-02T15:26:14Z</time>
      </trkpt>
      <trkpt lat="42.892483" lon="1.460879">
        <ele>1266.2</ele>
        <time>2013-03-02T15:26:25Z</time>
      </trkpt>
      <trkpt lat="42.892515" lon="1.461005">
        <ele>1264.8</ele>
        <time>2013-03-02T15:26:36Z</time>
      </trkpt>
      <trkpt lat="42.892538" lon="1.461138">
        <ele>1264.3</ele>
        <time>2013-03-02T15:27:36Z</time>
      </trkpt>
      <trkpt lat="42.892534" lon="1.461082">
        <ele>1263.8</ele>
        <time>2013-03-02T15:32:20Z</time>
      </trkpt>
      <trkpt lat="42.892536" lon="1.461138">
        <ele>1264.3</ele>
        <time>2013-03-02T15:33:22Z</time>
      </trkpt>
      <trkpt lat="42.892602" lon="1.461244">
        <ele>1262.8</ele>
        <time>2013-03-02T15:33:37Z</time>
      </trkpt>
      <trkpt lat="42.892677" lon="1.461322">
        <ele>1262.8</ele>
        <time>2013-03-02T15:33:47Z</time>
      </trkpt>
      <trkpt lat="42.892749" lon="1.461384">
        <ele>1262.3</ele>
        <time>2013-03-02T15:33:57Z</time>
      </trkpt>
      <trkpt lat="42.892820" lon="1.461488">
        <ele>1261.4</ele>
        <time>2013-03-02T15:34:08Z</time>
      </trkpt>
      <trkpt lat="42.892882" lon="1.461600">
        <ele>1259.9</ele>
        <time>2013-03-02T15:34:18Z</time>
      </trkpt>
      <trkpt lat="42.892953" lon="1.461678">
        <ele>1258.0</ele>
        <time>2013-03-02T15:34:28Z</time>
      </trkpt>
      <trkpt lat="42.893033" lon="1.461743">
        <ele>1256.1</ele>
        <time>2013-03-02T15:34:37Z</time>
      </trkpt>
      <trkpt lat="42.893102" lon="1.461823">
        <ele>1253.7</ele>
        <time>2013-03-02T15:34:47Z</time>
      </trkpt>
      <trkpt lat="42.893177" lon="1.461894">
        <ele>1250.3</ele>
        <time>2013-03-02T15:34:57Z</time>
      </trkpt>
      <trkpt lat="42.893260" lon="1.461903">
        <ele>1247.9</ele>
        <time>2013-03-02T15:35:09Z</time>
      </trkpt>
      <trkpt lat="42.893326" lon="1.461812">
        <ele>1246.0</ele>
        <time>2013-03-02T15:35:18Z</time>
      </trkpt>
      <trkpt lat="42.893398" lon="1.461731">
        <ele>1242.6</ele>
        <time>2013-03-02T15:35:31Z</time>
      </trkpt>
      <trkpt lat="42.893483" lon="1.461705">
        <ele>1240.7</ele>
        <time>2013-03-02T15:35:42Z</time>
      </trkpt>
      <trkpt lat="42.893551" lon="1.461814">
        <ele>1237.8</ele>
        <time>2013-03-02T15:35:53Z</time>
      </trkpt>
      <trkpt lat="42.893621" lon="1.461905">
        <ele>1234.9</ele>
        <time>2013-03-02T15:36:02Z</time>
      </trkpt>
      <trkpt lat="42.893686" lon="1.461985">
        <ele>1232.1</ele>
        <time>2013-03-02T15:36:12Z</time>
      </trkpt>
      <trkpt lat="42.893781" lon="1.461968">
        <ele>1223.9</ele>
        <time>2013-03-02T15:36:25Z</time>
      </trkpt>
      <trkpt lat="42.893866" lon="1.462043">
        <ele>1222.9</ele>
        <time>2013-03-02T15:36:37Z</time>
      </trkpt>
      <trkpt lat="42.893929" lon="1.462044">
        <ele>1219.6</ele>
        <time>2013-03-02T15:37:17Z</time>
      </trkpt>
      <trkpt lat="42.894063" lon="1.462122">
        <ele>1216.7</ele>
        <time>2013-03-02T15:37:54Z</time>
      </trkpt>
      <trkpt lat="42.894146" lon="1.462196">
        <ele>1213.3</ele>
        <time>2013-03-02T15:38:20Z</time>
      </trkpt>
      <trkpt lat="42.894244" lon="1.462224">
        <ele>1209.5</ele>
        <time>2013-03-02T15:38:36Z</time>
      </trkpt>
      <trkpt lat="42.894346" lon="1.462182">
        <ele>1205.6</ele>
        <time>2013-03-02T15:38:49Z</time>
      </trkpt>
      <trkpt lat="42.894427" lon="1.462205">
        <ele>1201.8</ele>
        <time>2013-03-02T15:39:03Z</time>
      </trkpt>
      <trkpt lat="42.894481" lon="1.462165">
        <ele>1197.0</ele>
        <time>2013-03-02T15:39:22Z</time>
      </trkpt>
      <trkpt lat="42.894562" lon="1.462088">
        <ele>1192.7</ele>
        <time>2013-03-02T15:39:38Z</time>
      </trkpt>
      <trkpt lat="42.894646" lon="1.462078">
        <ele>1186.4</ele>
        <time>2013-03-02T15:39:52Z</time>
      </trkpt>
      <trkpt lat="42.894742" lon="1.462129">
        <ele>1180.6</ele>
        <time>2013-03-02T15:40:07Z</time>
      </trkpt>
      <trkpt lat="42.894840" lon="1.462144">
        <ele>1177.3</ele>
        <time>2013-03-02T15:40:21Z</time>
      </trkpt>
      <trkpt lat="42.894913" lon="1.462147">
        <ele>1177.8</ele>
        <time>2013-03-02T15:44:57Z</time>
      </trkpt>
      <trkpt lat="42.894975" lon="1.462013">
        <ele>1176.3</ele>
        <time>2013-03-02T15:45:12Z</time>
      </trkpt>
      <trkpt lat="42.895042" lon="1.462047">
        <ele>1172.0</ele>
        <time>2013-03-02T15:45:30Z</time>
      </trkpt>
      <trkpt lat="42.895105" lon="1.462139">
        <ele>1170.1</ele>
        <time>2013-03-02T15:45:44Z</time>
      </trkpt>
      <trkpt lat="42.895176" lon="1.462235">
        <ele>1167.7</ele>
        <time>2013-03-02T15:46:02Z</time>
      </trkpt>
      <trkpt lat="42.895272" lon="1.462193">
        <ele>1163.8</ele>
        <time>2013-03-02T15:46:19Z</time>
      </trkpt>
      <trkpt lat="42.895370" lon="1.462154">
        <ele>1157.1</ele>
        <time>2013-03-02T15:46:36Z</time>
      </trkpt>
      <trkpt lat="42.895468" lon="1.462162">
        <ele>1154.7</ele>
        <time>2013-03-02T15:46:51Z</time>
      </trkpt>
      <trkpt lat="42.895583" lon="1.462238">
        <ele>1150.3</ele>
        <time>2013-03-02T15:47:07Z</time>
      </trkpt>
      <trkpt lat="42.895668" lon="1.462309">
        <ele>1147.9</ele>
        <time>2013-03-02T15:47:18Z</time>
      </trkpt>
      <trkpt lat="42.895760" lon="1.462332">
        <ele>1144.6</ele>
        <time>2013-03-02T15:47:32Z</time>
      </trkpt>
      <trkpt lat="42.895803" lon="1.462425">
        <ele>1143.6</ele>
        <time>2013-03-02T15:47:43Z</time>
      </trkpt>
      <trkpt lat="42.895845" lon="1.462571">
        <ele>1142.2</ele>
        <time>2013-03-02T15:47:57Z</time>
      </trkpt>
      <trkpt lat="42.895846" lon="1.462709">
        <ele>1141.2</ele>
        <time>2013-03-02T15:48:09Z</time>
      </trkpt>
      <trkpt lat="42.895841" lon="1.462816">
        <ele>1138.8</ele>
        <time>2013-03-02T15:48:19Z</time>
      </trkpt>
      <trkpt lat="42.895854" lon="1.462944">
        <ele>1137.9</ele>
        <time>2013-03-02T15:48:31Z</time>
      </trkpt>
      <trkpt lat="42.895861" lon="1.463061">
        <ele>1135.9</ele>
        <time>2013-03-02T15:48:41Z</time>
      </trkpt>
      <trkpt lat="42.895902" lon="1.463202">
        <ele>1135.4</ele>
        <time>2013-03-02T15:48:52Z</time>
      </trkpt>
      <trkpt lat="42.895901" lon="1.463347">
        <ele>1134.0</ele>
        <time>2013-03-02T15:49:03Z</time>
      </trkpt>
      <trkpt lat="42.895971" lon="1.463471">
        <ele>1131.6</ele>
        <time>2013-03-02T15:49:27Z</time>
      </trkpt>
      <trkpt lat="42.896015" lon="1.463592">
        <ele>1129.2</ele>
        <time>2013-03-02T15:49:43Z</time>
      </trkpt>
      <trkpt lat="42.896035" lon="1.463725">
        <ele>1125.8</ele>
        <time>2013-03-02T15:49:58Z</time>
      </trkpt>
      <trkpt lat="42.896047" lon="1.463866">
        <ele>1124.4</ele>
        <time>2013-03-02T15:50:13Z</time>
      </trkpt>
      <trkpt lat="42.896048" lon="1.463987">
        <ele>1123.9</ele>
        <time>2013-03-02T15:50:23Z</time>
        <name>Pont</name>
      </trkpt>
      <trkpt lat="42.896062" lon="1.464078">
        <ele>1123.9</ele>
        <time>2013-03-02T15:50:50Z</time>
      </trkpt>
      <trkpt lat="42.896078" lon="1.464071">
        <ele>1125.4</ele>
        <time>2013-03-02T15:54:40Z</time>
      </trkpt>
      <trkpt lat="42.896165" lon="1.464088">
        <ele>1128.2</ele>
        <time>2013-03-02T15:55:12Z</time>
      </trkpt>
      <trkpt lat="42.896258" lon="1.464033">
        <ele>1130.7</ele>
        <time>2013-03-02T15:55:31Z</time>
      </trkpt>
      <trkpt lat="42.896318" lon="1.463906">
        <ele>1133.5</ele>
        <time>2013-03-02T15:55:49Z</time>
      </trkpt>
      <trkpt lat="42.896351" lon="1.463783">
        <ele>1135.9</ele>
        <time>2013-03-02T15:56:06Z</time>
      </trkpt>
      <trkpt lat="42.896388" lon="1.463669">
        <ele>1137.9</ele>
        <time>2013-03-02T15:56:22Z</time>
      </trkpt>
      <trkpt lat="42.896472" lon="1.463612">
        <ele>1140.7</ele>
        <time>2013-03-02T15:56:47Z</time>
      </trkpt>
      <trkpt lat="42.896547" lon="1.463512">
        <ele>1142.7</ele>
        <time>2013-03-02T15:57:02Z</time>
      </trkpt>
      <trkpt lat="42.896596" lon="1.463433">
        <ele>1145.6</ele>
        <time>2013-03-02T15:57:17Z</time>
      </trkpt>
      <trkpt lat="42.896675" lon="1.463332">
        <ele>1147.0</ele>
        <time>2013-03-02T15:57:30Z</time>
      </trkpt>
      <trkpt lat="42.896762" lon="1.463283">
        <ele>1148.9</ele>
        <time>2013-03-02T15:57:43Z</time>
      </trkpt>
      <trkpt lat="42.896802" lon="1.463189">
        <ele>1150.8</ele>
        <time>2013-03-02T15:57:57Z</time>
      </trkpt>
      <trkpt lat="42.896877" lon="1.463183">
        <ele>1152.3</ele>
        <time>2013-03-02T15:58:23Z</time>
      </trkpt>
      <trkpt lat="42.896962" lon="1.463084">
        <ele>1151.8</ele>
        <time>2013-03-02T16:02:32Z</time>
      </trkpt>
      <trkpt lat="42.897019" lon="1.462967">
        <ele>1150.8</ele>
        <time>2013-03-02T16:02:47Z</time>
      </trkpt>
      <trkpt lat="42.897016" lon="1.462821">
        <ele>1152.3</ele>
        <time>2013-03-02T16:02:59Z</time>
      </trkpt>
      <trkpt lat="42.897002" lon="1.462703">
        <ele>1153.2</ele>
        <time>2013-03-02T16:03:11Z</time>
      </trkpt>
      <trkpt lat="42.896960" lon="1.462530">
        <ele>1153.2</ele>
        <time>2013-03-02T16:03:28Z</time>
      </trkpt>
      <trkpt lat="42.896921" lon="1.462383">
        <ele>1153.2</ele>
        <time>2013-03-02T16:03:40Z</time>
      </trkpt>
      <trkpt lat="42.896863" lon="1.462239">
        <ele>1153.7</ele>
        <time>2013-03-02T16:03:52Z</time>
      </trkpt>
      <trkpt lat="42.896767" lon="1.462137">
        <ele>1153.2</ele>
        <time>2013-03-02T16:04:05Z</time>
      </trkpt>
      <trkpt lat="42.896708" lon="1.461992">
        <ele>1153.7</ele>
        <time>2013-03-02T16:04:20Z</time>
      </trkpt>
      <trkpt lat="42.896711" lon="1.461810">
        <ele>1155.6</ele>
        <time>2013-03-02T16:04:31Z</time>
      </trkpt>
      <trkpt lat="42.896762" lon="1.461683">
        <ele>1156.1</ele>
        <time>2013-03-02T16:04:42Z</time>
      </trkpt>
      <trkpt lat="42.896799" lon="1.461526">
        <ele>1155.6</ele>
        <time>2013-03-02T16:04:57Z</time>
      </trkpt>
      <trkpt lat="42.896808" lon="1.461400">
        <ele>1156.1</ele>
        <time>2013-03-02T16:05:10Z</time>
      </trkpt>
      <trkpt lat="42.896821" lon="1.461250">
        <ele>1156.1</ele>
        <time>2013-03-02T16:05:22Z</time>
      </trkpt>
      <trkpt lat="42.896831" lon="1.461082">
        <ele>1157.1</ele>
        <time>2013-03-02T16:05:34Z</time>
      </trkpt>
      <trkpt lat="42.896846" lon="1.460933">
        <ele>1157.1</ele>
        <time>2013-03-02T16:05:47Z</time>
      </trkpt>
      <trkpt lat="42.896866" lon="1.460781">
        <ele>1158.1</ele>
        <time>2013-03-02T16:05:58Z</time>
      </trkpt>
      <trkpt lat="42.896872" lon="1.460637">
        <ele>1158.1</ele>
        <time>2013-03-02T16:06:11Z</time>
      </trkpt>
      <trkpt lat="42.896896" lon="1.460491">
        <ele>1158.5</ele>
        <time>2013-03-02T16:06:27Z</time>
      </trkpt>
      <trkpt lat="42.896900" lon="1.460320">
        <ele>1159.5</ele>
        <time>2013-03-02T16:06:41Z</time>
      </trkpt>
      <trkpt lat="42.896913" lon="1.460172">
        <ele>1159.5</ele>
        <time>2013-03-02T16:06:53Z</time>
      </trkpt>
      <trkpt lat="42.896914" lon="1.460016">
        <ele>1159.5</ele>
        <time>2013-03-02T16:07:04Z</time>
      </trkpt>
      <trkpt lat="42.896927" lon="1.459842">
        <ele>1159.0</ele>
        <time>2013-03-02T16:07:17Z</time>
      </trkpt>
      <trkpt lat="42.896960" lon="1.459683">
        <ele>1160.0</ele>
        <time>2013-03-02T16:07:30Z</time>
      </trkpt>
      <trkpt lat="42.897019" lon="1.459544">
        <ele>1161.9</ele>
        <time>2013-03-02T16:07:43Z</time>
      </trkpt>
      <trkpt lat="42.897069" lon="1.459426">
        <ele>1163.8</ele>
        <time>2013-03-02T16:07:56Z</time>
      </trkpt>
      <trkpt lat="42.897114" lon="1.459278">
        <ele>1166.7</ele>
        <time>2013-03-02T16:08:14Z</time>
      </trkpt>
      <trkpt lat="42.897177" lon="1.459136">
        <ele>1169.6</ele>
        <time>2013-03-02T16:08:29Z</time>
      </trkpt>
      <trkpt lat="42.897237" lon="1.459022">
        <ele>1170.5</ele>
        <time>2013-03-02T16:08:46Z</time>
      </trkpt>
      <trkpt lat="42.897289" lon="1.458928">
        <ele>1172.9</ele>
        <time>2013-03-02T16:09:01Z</time>
      </trkpt>
      <trkpt lat="42.897359" lon="1.458777">
        <ele>1173.4</ele>
        <time>2013-03-02T16:09:18Z</time>
      </trkpt>
      <trkpt lat="42.897415" lon="1.458632">
        <ele>1175.8</ele>
        <time>2013-03-02T16:09:33Z</time>
      </trkpt>
      <trkpt lat="42.897437" lon="1.458503">
        <ele>1174.9</ele>
        <time>2013-03-02T16:09:49Z</time>
      </trkpt>
      <trkpt lat="42.897475" lon="1.458394">
        <ele>1176.3</ele>
        <time>2013-03-02T16:10:07Z</time>
      </trkpt>
      <trkpt lat="42.897493" lon="1.458235">
        <ele>1181.1</ele>
        <time>2013-03-02T16:10:26Z</time>
      </trkpt>
      <trkpt lat="42.897521" lon="1.458105">
        <ele>1183.5</ele>
        <time>2013-03-02T16:10:41Z</time>
      </trkpt>
      <trkpt lat="42.897567" lon="1.457994">
        <ele>1187.4</ele>
        <time>2013-03-02T16:10:56Z</time>
      </trkpt>
      <trkpt lat="42.897624" lon="1.457880">
        <ele>1189.3</ele>
        <time>2013-03-02T16:11:09Z</time>
      </trkpt>
      <trkpt lat="42.897684" lon="1.457765">
        <ele>1192.2</ele>
        <time>2013-03-02T16:11:21Z</time>
      </trkpt>
      <trkpt lat="42.897751" lon="1.457701">
        <ele>1194.1</ele>
        <time>2013-03-02T16:11:32Z</time>
      </trkpt>
      <trkpt lat="42.897814" lon="1.457579">
        <ele>1194.6</ele>
        <time>2013-03-02T16:11:44Z</time>
      </trkpt>
      <trkpt lat="42.897885" lon="1.457473">
        <ele>1195.1</ele>
        <time>2013-03-02T16:11:55Z</time>
      </trkpt>
      <trkpt lat="42.897940" lon="1.457356">
        <ele>1197.0</ele>
        <time>2013-03-02T16:12:05Z</time>
      </trkpt>
      <trkpt lat="42.897995" lon="1.457253">
        <ele>1197.9</ele>
        <time>2013-03-02T16:12:16Z</time>
      </trkpt>
      <trkpt lat="42.898053" lon="1.457144">
        <ele>1199.9</ele>
        <time>2013-03-02T16:12:26Z</time>
      </trkpt>
      <trkpt lat="42.898105" lon="1.457042">
        <ele>1203.7</ele>
        <time>2013-03-02T16:12:39Z</time>
      </trkpt>
      <trkpt lat="42.898155" lon="1.456932">
        <ele>1204.7</ele>
        <time>2013-03-02T16:12:53Z</time>
      </trkpt>
      <trkpt lat="42.898195" lon="1.456801">
        <ele>1209.0</ele>
        <time>2013-03-02T16:13:05Z</time>
      </trkpt>
      <trkpt lat="42.898264" lon="1.456693">
        <ele>1210.9</ele>
        <time>2013-03-02T16:13:19Z</time>
      </trkpt>
      <trkpt lat="42.898308" lon="1.456593">
        <ele>1213.3</ele>
        <time>2013-03-02T16:13:31Z</time>
      </trkpt>
      <trkpt lat="42.898351" lon="1.456461">
        <ele>1213.8</ele>
        <time>2013-03-02T16:13:43Z</time>
      </trkpt>
      <trkpt lat="42.898414" lon="1.456369">
        <ele>1218.6</ele>
        <time>2013-03-02T16:13:56Z</time>
      </trkpt>
      <trkpt lat="42.898477" lon="1.456283">
        <ele>1220.1</ele>
        <time>2013-03-02T16:14:14Z</time>
      </trkpt>
      <trkpt lat="42.898522" lon="1.456168">
        <ele>1222.9</ele>
        <time>2013-03-02T16:14:27Z</time>
      </trkpt>
      <trkpt lat="42.898582" lon="1.456056">
        <ele>1225.3</ele>
        <time>2013-03-02T16:14:39Z</time>
      </trkpt>
      <trkpt lat="42.898622" lon="1.455936">
        <ele>1226.8</ele>
        <time>2013-03-02T16:14:53Z</time>
      </trkpt>
      <trkpt lat="42.898673" lon="1.455818">
        <ele>1227.7</ele>
        <time>2013-03-02T16:15:06Z</time>
      </trkpt>
      <trkpt lat="42.898715" lon="1.455686">
        <ele>1230.6</ele>
        <time>2013-03-02T16:15:18Z</time>
      </trkpt>
      <trkpt lat="42.898753" lon="1.455560">
        <ele>1231.1</ele>
        <time>2013-03-02T16:15:30Z</time>
      </trkpt>
      <trkpt lat="42.898778" lon="1.455434">
        <ele>1232.6</ele>
        <time>2013-03-02T16:15:41Z</time>
      </trkpt>
      <trkpt lat="42.898823" lon="1.455309">
        <ele>1234.5</ele>
        <time>2013-03-02T16:15:55Z</time>
      </trkpt>
      <trkpt lat="42.898861" lon="1.455181">
        <ele>1235.9</ele>
        <time>2013-03-02T16:16:07Z</time>
      </trkpt>
      <trkpt lat="42.898894" lon="1.455041">
        <ele>1237.8</ele>
        <time>2013-03-02T16:16:20Z</time>
      </trkpt>
      <trkpt lat="42.898925" lon="1.454892">
        <ele>1239.3</ele>
        <time>2013-03-02T16:16:34Z</time>
      </trkpt>
      <trkpt lat="42.898989" lon="1.454774">
        <ele>1241.7</ele>
        <time>2013-03-02T16:16:47Z</time>
      </trkpt>
      <trkpt lat="42.899016" lon="1.454646">
        <ele>1242.6</ele>
        <time>2013-03-02T16:16:58Z</time>
      </trkpt>
      <trkpt lat="42.899046" lon="1.454512">
        <ele>1243.6</ele>
        <time>2013-03-02T16:17:10Z</time>
      </trkpt>
      <trkpt lat="42.899080" lon="1.454370">
        <ele>1244.1</ele>
        <time>2013-03-02T16:17:19Z</time>
      </trkpt>
      <trkpt lat="42.899090" lon="1.454247">
        <ele>1244.6</ele>
        <time>2013-03-02T16:17:30Z</time>
      </trkpt>
      <trkpt lat="42.899073" lon="1.454111">
        <ele>1243.6</ele>
        <time>2013-03-02T16:17:41Z</time>
      </trkpt>
      <trkpt lat="42.899059" lon="1.453974">
        <ele>1245.5</ele>
        <time>2013-03-02T16:17:53Z</time>
      </trkpt>
      <trkpt lat="42.899040" lon="1.453827">
        <ele>1248.4</ele>
        <time>2013-03-02T16:18:05Z</time>
      </trkpt>
      <trkpt lat="42.899044" lon="1.453697">
        <ele>1250.8</ele>
        <time>2013-03-02T16:18:24Z</time>
      </trkpt>
      <trkpt lat="42.899019" lon="1.453541">
        <ele>1251.8</ele>
        <time>2013-03-02T16:18:44Z</time>
      </trkpt>
      <trkpt lat="42.899052" lon="1.453508">
        <ele>1251.8</ele>
        <time>2013-03-02T16:20:20Z</time>
      </trkpt>
    </trkseg>
  </trk>
</gpx>

